<?xml version="1.0" encoding="UTF-8" standalone="no" ?>
<gpx xmlns="http://www.topografix.com/GPX/1/1" xmlns:xsi="http://www.w3.org/2001/XMLSchema-instance" xsi:schemaLocation="http://www.topografix.com/GPX/1/1 http://www.topografix.com/GPX/1/1/gpx.xsd" version="1.1" creator="VisuGPX - https://www.visugpx.com">
  <metadata>
    <name>Gemsa Ski de Rando 2014-03-12 J4 : Refuge Arremoulit - Refuge Larribet</name>
    <desc><![CDATA[Refuge d\'Arremoulit (2275m)
Col de Palas (2517m)
Port du LAvedan (2616m)
Lacs de Micoulaou (2333m)
Lacs de Batcrabere (2182m)
Refuge Larribet (2060m)
Eperon Raysse, vers Pic Rouge / Col du Prabat (2700m)
Refuge Larribet (2060m)]]></desc>
  </metadata>
  <trk>
    <name><![CDATA[Gemsa Ski de Rando 2014-03-12 J4 : Refuge Arremoulit - Refuge Larribet_1]]></name>
    <trkseg>
      <trkpt lat="42.84583" lon="-0.32871">
        <ele>2210.7309570312</ele>
        <time>2014-03-12T07:41:34Z</time>
      </trkpt>
      <trkpt lat="42.84584" lon="-0.32867">
        <ele>2215.3999023438</ele>
        <time>2014-03-12T07:41:43Z</time>
      </trkpt>
      <trkpt lat="42.84584" lon="-0.32868">
        <ele>2220.0949707031</ele>
        <time>2014-03-12T07:41:45Z</time>
      </trkpt>
      <trkpt lat="42.84585" lon="-0.32869">
        <ele>2224.2719726562</ele>
        <time>2014-03-12T07:41:47Z</time>
      </trkpt>
      <trkpt lat="42.84584" lon="-0.32869">
        <ele>2228.1708984375</ele>
        <time>2014-03-12T07:41:49Z</time>
      </trkpt>
      <trkpt lat="42.84584" lon="-0.32869">
        <ele>2230.0229492188</ele>
        <time>2014-03-12T07:41:51Z</time>
      </trkpt>
      <trkpt lat="42.84584" lon="-0.32868">
        <ele>2231.7670898438</ele>
        <time>2014-03-12T07:41:55Z</time>
      </trkpt>
      <trkpt lat="42.84585" lon="-0.32869">
        <ele>2233.3569335938</ele>
        <time>2014-03-12T07:42:10Z</time>
      </trkpt>
      <trkpt lat="42.84585" lon="-0.32869">
        <ele>2236.6850585938</ele>
        <time>2014-03-12T07:42:15Z</time>
      </trkpt>
      <trkpt lat="42.84585" lon="-0.32869">
        <ele>2239.7590332031</ele>
        <time>2014-03-12T07:42:17Z</time>
      </trkpt>
      <trkpt lat="42.84585" lon="-0.32869">
        <ele>2243.0280761719</ele>
        <time>2014-03-12T07:42:19Z</time>
      </trkpt>
      <trkpt lat="42.84585" lon="-0.32869">
        <ele>2243.9899902344</ele>
        <time>2014-03-12T07:42:21Z</time>
      </trkpt>
      <trkpt lat="42.84585" lon="-0.32869">
        <ele>2246.1831054688</ele>
        <time>2014-03-12T07:42:23Z</time>
      </trkpt>
      <trkpt lat="42.84585" lon="-0.32869">
        <ele>2250.3659667969</ele>
        <time>2014-03-12T07:42:27Z</time>
      </trkpt>
      <trkpt lat="42.84585" lon="-0.32869">
        <ele>2253.4519042969</ele>
        <time>2014-03-12T07:42:30Z</time>
      </trkpt>
      <trkpt lat="42.84585" lon="-0.32869">
        <ele>2256.9599609375</ele>
        <time>2014-03-12T07:42:33Z</time>
      </trkpt>
      <trkpt lat="42.84585" lon="-0.32869">
        <ele>2257.2380371094</ele>
        <time>2014-03-12T07:42:34Z</time>
      </trkpt>
      <trkpt lat="42.84585" lon="-0.32869">
        <ele>2260.9299316406</ele>
        <time>2014-03-12T07:42:38Z</time>
      </trkpt>
      <trkpt lat="42.84585" lon="-0.32869">
        <ele>2263.998046875</ele>
        <time>2014-03-12T07:42:42Z</time>
      </trkpt>
      <trkpt lat="42.84585" lon="-0.32869">
        <ele>2267.1130371094</ele>
        <time>2014-03-12T07:42:48Z</time>
      </trkpt>
      <trkpt lat="42.84585" lon="-0.32869">
        <ele>2269.2670898438</ele>
        <time>2014-03-12T07:42:52Z</time>
      </trkpt>
      <trkpt lat="42.84585" lon="-0.32869">
        <ele>2272.458984375</ele>
        <time>2014-03-12T07:43:00Z</time>
      </trkpt>
      <trkpt lat="42.84585" lon="-0.32869">
        <ele>2275.5629882812</ele>
        <time>2014-03-12T07:43:08Z</time>
      </trkpt>
      <trkpt lat="42.84585" lon="-0.32869">
        <ele>2275.8439941406</ele>
        <time>2014-03-12T07:43:09Z</time>
      </trkpt>
      <trkpt lat="42.84585" lon="-0.32869">
        <ele>2278.9460449219</ele>
        <time>2014-03-12T07:43:23Z</time>
      </trkpt>
      <trkpt lat="42.84586" lon="-0.32869">
        <ele>2282.0720214844</ele>
        <time>2014-03-12T07:43:58Z</time>
      </trkpt>
      <trkpt lat="42.84587" lon="-0.32869">
        <ele>2282.3491210938</ele>
        <time>2014-03-12T07:44:15Z</time>
      </trkpt>
      <trkpt lat="42.8458" lon="-0.32854">
        <ele>2283.1130371094</ele>
        <time>2014-03-12T07:44:48Z</time>
      </trkpt>
      <trkpt lat="42.84574" lon="-0.32836">
        <ele>2286.1579589844</ele>
        <time>2014-03-12T07:45:08Z</time>
      </trkpt>
      <trkpt lat="42.84573" lon="-0.32824">
        <ele>2289.1909179688</ele>
        <time>2014-03-12T07:45:27Z</time>
      </trkpt>
      <trkpt lat="42.84577" lon="-0.32825">
        <ele>2291.5358886719</ele>
        <time>2014-03-12T07:45:40Z</time>
      </trkpt>
      <trkpt lat="42.84594" lon="-0.32825">
        <ele>2293.6040039062</ele>
        <time>2014-03-12T07:46:03Z</time>
      </trkpt>
      <trkpt lat="42.8461" lon="-0.32813">
        <ele>2295.708984375</ele>
        <time>2014-03-12T07:46:30Z</time>
      </trkpt>
      <trkpt lat="42.8461" lon="-0.328">
        <ele>2297.0900878906</ele>
        <time>2014-03-12T07:46:50Z</time>
      </trkpt>
      <trkpt lat="42.84602" lon="-0.32774">
        <ele>2297.7561035156</ele>
        <time>2014-03-12T07:47:17Z</time>
      </trkpt>
      <trkpt lat="42.84598" lon="-0.32759">
        <ele>2298.9169921875</ele>
        <time>2014-03-12T07:47:34Z</time>
      </trkpt>
      <trkpt lat="42.84594" lon="-0.32737">
        <ele>2299.7800292969</ele>
        <time>2014-03-12T07:47:56Z</time>
      </trkpt>
      <trkpt lat="42.84591" lon="-0.32725">
        <ele>2300.1630859375</ele>
        <time>2014-03-12T07:48:12Z</time>
      </trkpt>
      <trkpt lat="42.84592" lon="-0.32702">
        <ele>2300.9990234375</ele>
        <time>2014-03-12T07:48:38Z</time>
      </trkpt>
      <trkpt lat="42.846" lon="-0.3268">
        <ele>2298.3859863281</ele>
        <time>2014-03-12T07:49:09Z</time>
      </trkpt>
      <trkpt lat="42.84599" lon="-0.32659">
        <ele>2298.6169433594</ele>
        <time>2014-03-12T07:49:33Z</time>
      </trkpt>
      <trkpt lat="42.84598" lon="-0.3264">
        <ele>2301.0949707031</ele>
        <time>2014-03-12T07:49:54Z</time>
      </trkpt>
      <trkpt lat="42.84604" lon="-0.32621">
        <ele>2302.9750976562</ele>
        <time>2014-03-12T07:50:24Z</time>
      </trkpt>
      <trkpt lat="42.84614" lon="-0.32616">
        <ele>2306.1240234375</ele>
        <time>2014-03-12T07:50:42Z</time>
      </trkpt>
      <trkpt lat="42.84618" lon="-0.32612">
        <ele>2307.0930175781</ele>
        <time>2014-03-12T07:50:56Z</time>
      </trkpt>
      <trkpt lat="42.84627" lon="-0.32601">
        <ele>2309.9060058594</ele>
        <time>2014-03-12T07:51:24Z</time>
      </trkpt>
      <trkpt lat="42.84636" lon="-0.326">
        <ele>2312.2019042969</ele>
        <time>2014-03-12T07:51:49Z</time>
      </trkpt>
      <trkpt lat="42.84636" lon="-0.32593">
        <ele>2313.7890625</ele>
        <time>2014-03-12T07:52:06Z</time>
      </trkpt>
      <trkpt lat="42.84633" lon="-0.32576">
        <ele>2316.412109375</ele>
        <time>2014-03-12T07:52:34Z</time>
      </trkpt>
      <trkpt lat="42.84636" lon="-0.32567">
        <ele>2317.833984375</ele>
        <time>2014-03-12T07:52:50Z</time>
      </trkpt>
      <trkpt lat="42.84634" lon="-0.32549">
        <ele>2321.1049804688</ele>
        <time>2014-03-12T07:53:19Z</time>
      </trkpt>
      <trkpt lat="42.84633" lon="-0.32531">
        <ele>2323.5490722656</ele>
        <time>2014-03-12T07:53:46Z</time>
      </trkpt>
      <trkpt lat="42.84632" lon="-0.32523">
        <ele>2324.7609863281</ele>
        <time>2014-03-12T07:54:04Z</time>
      </trkpt>
      <trkpt lat="42.8464" lon="-0.32532">
        <ele>2326.9069824219</ele>
        <time>2014-03-12T07:54:19Z</time>
      </trkpt>
      <trkpt lat="42.84653" lon="-0.32541">
        <ele>2329.9660644531</ele>
        <time>2014-03-12T07:54:45Z</time>
      </trkpt>
      <trkpt lat="42.84668" lon="-0.32544">
        <ele>2332.001953125</ele>
        <time>2014-03-12T07:55:10Z</time>
      </trkpt>
      <trkpt lat="42.84664" lon="-0.32533">
        <ele>2333.4541015625</ele>
        <time>2014-03-12T07:55:27Z</time>
      </trkpt>
      <trkpt lat="42.84659" lon="-0.32515">
        <ele>2336.7561035156</ele>
        <time>2014-03-12T07:55:52Z</time>
      </trkpt>
      <trkpt lat="42.84651" lon="-0.325">
        <ele>2339.8959960938</ele>
        <time>2014-03-12T07:56:19Z</time>
      </trkpt>
      <trkpt lat="42.84643" lon="-0.32485">
        <ele>2343.2160644531</ele>
        <time>2014-03-12T07:56:47Z</time>
      </trkpt>
      <trkpt lat="42.84634" lon="-0.32471">
        <ele>2346.5568847656</ele>
        <time>2014-03-12T07:57:15Z</time>
      </trkpt>
      <trkpt lat="42.84628" lon="-0.32461">
        <ele>2349.6201171875</ele>
        <time>2014-03-12T07:57:39Z</time>
      </trkpt>
      <trkpt lat="42.84621" lon="-0.32451">
        <ele>2352.6320800781</ele>
        <time>2014-03-12T07:58:01Z</time>
      </trkpt>
      <trkpt lat="42.84614" lon="-0.32438">
        <ele>2355.8410644531</ele>
        <time>2014-03-12T07:58:27Z</time>
      </trkpt>
      <trkpt lat="42.84609" lon="-0.32432">
        <ele>2357.0170898438</ele>
        <time>2014-03-12T07:58:43Z</time>
      </trkpt>
      <trkpt lat="42.8462" lon="-0.32431">
        <ele>2359.0739746094</ele>
        <time>2014-03-12T07:59:01Z</time>
      </trkpt>
      <trkpt lat="42.84628" lon="-0.32429">
        <ele>2361.8010253906</ele>
        <time>2014-03-12T07:59:25Z</time>
      </trkpt>
      <trkpt lat="42.8462" lon="-0.32414">
        <ele>2365.1960449219</ele>
        <time>2014-03-12T07:59:46Z</time>
      </trkpt>
      <trkpt lat="42.8462" lon="-0.32404">
        <ele>2366.8068847656</ele>
        <time>2014-03-12T08:00:00Z</time>
      </trkpt>
      <trkpt lat="42.84621" lon="-0.32401">
        <ele>2368.0170898438</ele>
        <time>2014-03-12T08:00:07Z</time>
      </trkpt>
      <trkpt lat="42.84622" lon="-0.32397">
        <ele>2368.1740722656</ele>
        <time>2014-03-12T08:00:35Z</time>
      </trkpt>
      <trkpt lat="42.84622" lon="-0.32398">
        <ele>2368.1450195312</ele>
        <time>2014-03-12T08:00:40Z</time>
      </trkpt>
      <trkpt lat="42.84618" lon="-0.32394">
        <ele>2368.1420898438</ele>
        <time>2014-03-12T08:14:54Z</time>
      </trkpt>
      <trkpt lat="42.84616" lon="-0.32381">
        <ele>2371.2250976562</ele>
        <time>2014-03-12T08:15:06Z</time>
      </trkpt>
      <trkpt lat="42.84612" lon="-0.32366">
        <ele>2372.8740234375</ele>
        <time>2014-03-12T08:15:23Z</time>
      </trkpt>
      <trkpt lat="42.84606" lon="-0.3235">
        <ele>2374.6369628906</ele>
        <time>2014-03-12T08:15:40Z</time>
      </trkpt>
      <trkpt lat="42.84602" lon="-0.3233">
        <ele>2376.3010253906</ele>
        <time>2014-03-12T08:15:59Z</time>
      </trkpt>
      <trkpt lat="42.84594" lon="-0.32299">
        <ele>2376.3559570312</ele>
        <time>2014-03-12T08:16:25Z</time>
      </trkpt>
      <trkpt lat="42.84593" lon="-0.32297">
        <ele>2376.3640136719</ele>
        <time>2014-03-12T08:16:27Z</time>
      </trkpt>
      <trkpt lat="42.84591" lon="-0.3228">
        <ele>2378.1499023438</ele>
        <time>2014-03-12T08:16:44Z</time>
      </trkpt>
      <trkpt lat="42.84588" lon="-0.32255">
        <ele>2381.205078125</ele>
        <time>2014-03-12T08:17:06Z</time>
      </trkpt>
      <trkpt lat="42.84583" lon="-0.32232">
        <ele>2384.5568847656</ele>
        <time>2014-03-12T08:17:29Z</time>
      </trkpt>
      <trkpt lat="42.84577" lon="-0.32211">
        <ele>2387.2958984375</ele>
        <time>2014-03-12T08:17:51Z</time>
      </trkpt>
      <trkpt lat="42.84569" lon="-0.32194">
        <ele>2390.1049804688</ele>
        <time>2014-03-12T08:18:16Z</time>
      </trkpt>
      <trkpt lat="42.84558" lon="-0.32177">
        <ele>2392.2629394531</ele>
        <time>2014-03-12T08:18:41Z</time>
      </trkpt>
      <trkpt lat="42.84556" lon="-0.32165">
        <ele>2394.0129394531</ele>
        <time>2014-03-12T08:18:57Z</time>
      </trkpt>
      <trkpt lat="42.84557" lon="-0.3215">
        <ele>2395.7199707031</ele>
        <time>2014-03-12T08:19:15Z</time>
      </trkpt>
      <trkpt lat="42.84559" lon="-0.32136">
        <ele>2397.8920898438</ele>
        <time>2014-03-12T08:19:32Z</time>
      </trkpt>
      <trkpt lat="42.84563" lon="-0.32126">
        <ele>2399.5339355469</ele>
        <time>2014-03-12T08:19:45Z</time>
      </trkpt>
      <trkpt lat="42.84566" lon="-0.3212">
        <ele>2401.1159667969</ele>
        <time>2014-03-12T08:19:57Z</time>
      </trkpt>
      <trkpt lat="42.84563" lon="-0.32105">
        <ele>2403.2990722656</ele>
        <time>2014-03-12T08:20:17Z</time>
      </trkpt>
      <trkpt lat="42.84559" lon="-0.32086">
        <ele>2405.6499023438</ele>
        <time>2014-03-12T08:20:40Z</time>
      </trkpt>
      <trkpt lat="42.84563" lon="-0.32073">
        <ele>2407.6560058594</ele>
        <time>2014-03-12T08:20:59Z</time>
      </trkpt>
      <trkpt lat="42.84559" lon="-0.32064">
        <ele>2410.1120605469</ele>
        <time>2014-03-12T08:21:18Z</time>
      </trkpt>
      <trkpt lat="42.84565" lon="-0.32048">
        <ele>2413.6040039062</ele>
        <time>2014-03-12T08:21:41Z</time>
      </trkpt>
      <trkpt lat="42.84562" lon="-0.32042">
        <ele>2415.916015625</ele>
        <time>2014-03-12T08:22:02Z</time>
      </trkpt>
      <trkpt lat="42.84562" lon="-0.32028">
        <ele>2418.9230957031</ele>
        <time>2014-03-12T08:22:22Z</time>
      </trkpt>
      <trkpt lat="42.84553" lon="-0.32016">
        <ele>2422.1608886719</ele>
        <time>2014-03-12T08:22:55Z</time>
      </trkpt>
      <trkpt lat="42.84547" lon="-0.32009">
        <ele>2425.5500488281</ele>
        <time>2014-03-12T08:23:13Z</time>
      </trkpt>
      <trkpt lat="42.84545" lon="-0.31995">
        <ele>2426.3798828125</ele>
        <time>2014-03-12T08:23:42Z</time>
      </trkpt>
      <trkpt lat="42.84545" lon="-0.31977">
        <ele>2429.5949707031</ele>
        <time>2014-03-12T08:24:04Z</time>
      </trkpt>
      <trkpt lat="42.84542" lon="-0.3196">
        <ele>2432.08203125</ele>
        <time>2014-03-12T08:24:37Z</time>
      </trkpt>
      <trkpt lat="42.84542" lon="-0.31947">
        <ele>2435.3989257812</ele>
        <time>2014-03-12T08:26:00Z</time>
      </trkpt>
      <trkpt lat="42.84538" lon="-0.31937">
        <ele>2438.8999023438</ele>
        <time>2014-03-12T08:26:19Z</time>
      </trkpt>
      <trkpt lat="42.84528" lon="-0.31931">
        <ele>2442.1779785156</ele>
        <time>2014-03-12T08:26:40Z</time>
      </trkpt>
      <trkpt lat="42.84528" lon="-0.31922">
        <ele>2444.00390625</ele>
        <time>2014-03-12T08:26:51Z</time>
      </trkpt>
      <trkpt lat="42.84523" lon="-0.31915">
        <ele>2445.50390625</ele>
        <time>2014-03-12T08:27:04Z</time>
      </trkpt>
      <trkpt lat="42.8452" lon="-0.31904">
        <ele>2446.7380371094</ele>
        <time>2014-03-12T08:27:18Z</time>
      </trkpt>
      <trkpt lat="42.84524" lon="-0.31895">
        <ele>2447.4089355469</ele>
        <time>2014-03-12T08:27:32Z</time>
      </trkpt>
      <trkpt lat="42.84524" lon="-0.31893">
        <ele>2447.5739746094</ele>
        <time>2014-03-12T08:27:57Z</time>
      </trkpt>
      <trkpt lat="42.84523" lon="-0.31892">
        <ele>2447.583984375</ele>
        <time>2014-03-12T08:28:26Z</time>
      </trkpt>
      <trkpt lat="42.84524" lon="-0.31894">
        <ele>2447.49609375</ele>
        <time>2014-03-12T08:28:44Z</time>
      </trkpt>
      <trkpt lat="42.84523" lon="-0.31894">
        <ele>2447.8049316406</ele>
        <time>2014-03-12T08:29:23Z</time>
      </trkpt>
      <trkpt lat="42.84521" lon="-0.31895">
        <ele>2447.455078125</ele>
        <time>2014-03-12T08:29:48Z</time>
      </trkpt>
      <trkpt lat="42.84513" lon="-0.31892">
        <ele>2450.0529785156</ele>
        <time>2014-03-12T08:30:56Z</time>
      </trkpt>
      <trkpt lat="42.84502" lon="-0.31897">
        <ele>2453.9780273438</ele>
        <time>2014-03-12T08:31:22Z</time>
      </trkpt>
      <trkpt lat="42.84491" lon="-0.31906">
        <ele>2457.0290527344</ele>
        <time>2014-03-12T08:31:52Z</time>
      </trkpt>
      <trkpt lat="42.84483" lon="-0.31917">
        <ele>2460.1000976562</ele>
        <time>2014-03-12T08:32:11Z</time>
      </trkpt>
      <trkpt lat="42.8448" lon="-0.31928">
        <ele>2463.7770996094</ele>
        <time>2014-03-12T08:32:32Z</time>
      </trkpt>
      <trkpt lat="42.84475" lon="-0.31922">
        <ele>2465.8740234375</ele>
        <time>2014-03-12T08:32:50Z</time>
      </trkpt>
      <trkpt lat="42.84468" lon="-0.31908">
        <ele>2469.037109375</ele>
        <time>2014-03-12T08:33:13Z</time>
      </trkpt>
      <trkpt lat="42.84463" lon="-0.31892">
        <ele>2472.1960449219</ele>
        <time>2014-03-12T08:33:39Z</time>
      </trkpt>
      <trkpt lat="42.8446" lon="-0.31878">
        <ele>2473.4030761719</ele>
        <time>2014-03-12T08:33:59Z</time>
      </trkpt>
      <trkpt lat="42.84459" lon="-0.31866">
        <ele>2475.7839355469</ele>
        <time>2014-03-12T08:34:17Z</time>
      </trkpt>
      <trkpt lat="42.84458" lon="-0.31852">
        <ele>2477.2329101562</ele>
        <time>2014-03-12T08:34:32Z</time>
      </trkpt>
      <trkpt lat="42.84463" lon="-0.31837">
        <ele>2479.705078125</ele>
        <time>2014-03-12T08:34:54Z</time>
      </trkpt>
      <trkpt lat="42.84462" lon="-0.31837">
        <ele>2480.1560058594</ele>
        <time>2014-03-12T08:34:58Z</time>
      </trkpt>
      <trkpt lat="42.84454" lon="-0.31837">
        <ele>2481.83203125</ele>
        <time>2014-03-12T08:35:19Z</time>
      </trkpt>
      <trkpt lat="42.84443" lon="-0.31835">
        <ele>2484.9189453125</ele>
        <time>2014-03-12T08:35:46Z</time>
      </trkpt>
      <trkpt lat="42.84438" lon="-0.31834">
        <ele>2487.75390625</ele>
        <time>2014-03-12T08:36:12Z</time>
      </trkpt>
      <trkpt lat="42.84441" lon="-0.31817">
        <ele>2490.5300292969</ele>
        <time>2014-03-12T08:36:35Z</time>
      </trkpt>
      <trkpt lat="42.84447" lon="-0.31809">
        <ele>2492.1831054688</ele>
        <time>2014-03-12T08:36:52Z</time>
      </trkpt>
      <trkpt lat="42.84449" lon="-0.31806">
        <ele>2493.1020507812</ele>
        <time>2014-03-12T08:36:59Z</time>
      </trkpt>
      <trkpt lat="42.8445" lon="-0.31802">
        <ele>2493.2670898438</ele>
        <time>2014-03-12T08:37:06Z</time>
      </trkpt>
      <trkpt lat="42.84454" lon="-0.318">
        <ele>2494.9970703125</ele>
        <time>2014-03-12T08:37:13Z</time>
      </trkpt>
      <trkpt lat="42.84447" lon="-0.31798">
        <ele>2496.5568847656</ele>
        <time>2014-03-12T08:37:29Z</time>
      </trkpt>
      <trkpt lat="42.84435" lon="-0.31796">
        <ele>2499.6989746094</ele>
        <time>2014-03-12T08:37:49Z</time>
      </trkpt>
      <trkpt lat="42.84421" lon="-0.31797">
        <ele>2502.7648925781</ele>
        <time>2014-03-12T08:38:14Z</time>
      </trkpt>
      <trkpt lat="42.8441" lon="-0.31807">
        <ele>2505.6770019531</ele>
        <time>2014-03-12T08:38:45Z</time>
      </trkpt>
      <trkpt lat="42.8441" lon="-0.31798">
        <ele>2506.7829589844</ele>
        <time>2014-03-12T08:38:58Z</time>
      </trkpt>
      <trkpt lat="42.84413" lon="-0.3178">
        <ele>2509.0869140625</ele>
        <time>2014-03-12T08:39:17Z</time>
      </trkpt>
      <trkpt lat="42.84416" lon="-0.31767">
        <ele>2510.9089355469</ele>
        <time>2014-03-12T08:39:36Z</time>
      </trkpt>
      <trkpt lat="42.8442" lon="-0.31761">
        <ele>2512.4169921875</ele>
        <time>2014-03-12T08:39:57Z</time>
      </trkpt>
      <trkpt lat="42.84422" lon="-0.31759">
        <ele>2514.3640136719</ele>
        <time>2014-03-12T08:40:18Z</time>
      </trkpt>
      <trkpt lat="42.84412" lon="-0.31757">
        <ele>2517.5300292969</ele>
        <time>2014-03-12T08:40:33Z</time>
      </trkpt>
      <trkpt lat="42.84402" lon="-0.31755">
        <ele>2520.5581054688</ele>
        <time>2014-03-12T08:40:49Z</time>
      </trkpt>
      <trkpt lat="42.84398" lon="-0.31764">
        <ele>2523.9309082031</ele>
        <time>2014-03-12T08:41:10Z</time>
      </trkpt>
      <trkpt lat="42.84399" lon="-0.31761">
        <ele>2525.8149414062</ele>
        <time>2014-03-12T08:41:30Z</time>
      </trkpt>
      <trkpt lat="42.84399" lon="-0.31755">
        <ele>2528.3010253906</ele>
        <time>2014-03-12T08:41:43Z</time>
      </trkpt>
      <trkpt lat="42.84397" lon="-0.31756">
        <ele>2529.4050292969</ele>
        <time>2014-03-12T08:42:00Z</time>
      </trkpt>
      <trkpt lat="42.84394" lon="-0.31745">
        <ele>2530.9970703125</ele>
        <time>2014-03-12T08:42:13Z</time>
      </trkpt>
      <trkpt lat="42.84394" lon="-0.31728">
        <ele>2530.6440429688</ele>
        <time>2014-03-12T08:42:30Z</time>
      </trkpt>
      <trkpt lat="42.84396" lon="-0.31722">
        <ele>2529.2971191406</ele>
        <time>2014-03-12T08:42:46Z</time>
      </trkpt>
      <trkpt lat="42.844" lon="-0.31722">
        <ele>2528.287109375</ele>
        <time>2014-03-12T08:43:44Z</time>
      </trkpt>
      <trkpt lat="42.844" lon="-0.31721">
        <ele>2527.998046875</ele>
        <time>2014-03-12T08:44:30Z</time>
      </trkpt>
      <trkpt lat="42.84388" lon="-0.31727">
        <ele>2527.9079589844</ele>
        <time>2014-03-12T08:44:49Z</time>
      </trkpt>
      <trkpt lat="42.8439" lon="-0.31726">
        <ele>2528.3159179688</ele>
        <time>2014-03-12T08:45:48Z</time>
      </trkpt>
      <trkpt lat="42.84396" lon="-0.31726">
        <ele>2529.6379394531</ele>
        <time>2014-03-12T08:46:03Z</time>
      </trkpt>
      <trkpt lat="42.84398" lon="-0.31724">
        <ele>2530.5209960938</ele>
        <time>2014-03-12T08:46:25Z</time>
      </trkpt>
      <trkpt lat="42.84398" lon="-0.31724">
        <ele>2527.4379882812</ele>
        <time>2014-03-12T08:47:23Z</time>
      </trkpt>
      <trkpt lat="42.84397" lon="-0.31724">
        <ele>2526.8469238281</ele>
        <time>2014-03-12T08:49:36Z</time>
      </trkpt>
      <trkpt lat="42.84397" lon="-0.31727">
        <ele>2527.0649414062</ele>
        <time>2014-03-12T08:50:25Z</time>
      </trkpt>
      <trkpt lat="42.84396" lon="-0.31728">
        <ele>2526.3269042969</ele>
        <time>2014-03-12T08:50:41Z</time>
      </trkpt>
      <trkpt lat="42.84396" lon="-0.31726">
        <ele>2525.8291015625</ele>
        <time>2014-03-12T08:51:10Z</time>
      </trkpt>
      <trkpt lat="42.84394" lon="-0.31726">
        <ele>2525.37890625</ele>
        <time>2014-03-12T08:51:39Z</time>
      </trkpt>
      <trkpt lat="42.84396" lon="-0.31724">
        <ele>2526.2041015625</ele>
        <time>2014-03-12T08:51:59Z</time>
      </trkpt>
      <trkpt lat="42.84398" lon="-0.31713">
        <ele>2524.2749023438</ele>
        <time>2014-03-12T08:52:16Z</time>
      </trkpt>
      <trkpt lat="42.84398" lon="-0.31695">
        <ele>2520.2219238281</ele>
        <time>2014-03-12T08:52:33Z</time>
      </trkpt>
      <trkpt lat="42.84399" lon="-0.31683">
        <ele>2518.333984375</ele>
        <time>2014-03-12T08:52:44Z</time>
      </trkpt>
      <trkpt lat="42.84396" lon="-0.31671">
        <ele>2517.0649414062</ele>
        <time>2014-03-12T08:52:54Z</time>
      </trkpt>
      <trkpt lat="42.84392" lon="-0.31667">
        <ele>2515.787109375</ele>
        <time>2014-03-12T08:52:58Z</time>
      </trkpt>
      <trkpt lat="42.84385" lon="-0.31651">
        <ele>2511.7019042969</ele>
        <time>2014-03-12T08:53:13Z</time>
      </trkpt>
      <trkpt lat="42.84386" lon="-0.3164">
        <ele>2508.416015625</ele>
        <time>2014-03-12T08:53:25Z</time>
      </trkpt>
      <trkpt lat="42.84386" lon="-0.31633">
        <ele>2505.6569824219</ele>
        <time>2014-03-12T08:53:33Z</time>
      </trkpt>
      <trkpt lat="42.84385" lon="-0.31627">
        <ele>2503.3430175781</ele>
        <time>2014-03-12T08:53:39Z</time>
      </trkpt>
      <trkpt lat="42.84387" lon="-0.31619">
        <ele>2499.6059570312</ele>
        <time>2014-03-12T08:53:48Z</time>
      </trkpt>
      <trkpt lat="42.84386" lon="-0.31618">
        <ele>2499.6030273438</ele>
        <time>2014-03-12T08:53:49Z</time>
      </trkpt>
      <trkpt lat="42.84386" lon="-0.3161">
        <ele>2497.0390625</ele>
        <time>2014-03-12T08:53:56Z</time>
      </trkpt>
      <trkpt lat="42.84383" lon="-0.316">
        <ele>2493.4719238281</ele>
        <time>2014-03-12T08:54:09Z</time>
      </trkpt>
      <trkpt lat="42.8438" lon="-0.31593">
        <ele>2491.4809570312</ele>
        <time>2014-03-12T08:54:26Z</time>
      </trkpt>
      <trkpt lat="42.84389" lon="-0.31592">
        <ele>2492.2170410156</ele>
        <time>2014-03-12T08:55:21Z</time>
      </trkpt>
      <trkpt lat="42.84398" lon="-0.31587">
        <ele>2491.5969238281</ele>
        <time>2014-03-12T08:55:35Z</time>
      </trkpt>
      <trkpt lat="42.84411" lon="-0.31576">
        <ele>2491.0581054688</ele>
        <time>2014-03-12T08:55:54Z</time>
      </trkpt>
      <trkpt lat="42.84423" lon="-0.31549">
        <ele>2491.3359375</ele>
        <time>2014-03-12T08:56:29Z</time>
      </trkpt>
      <trkpt lat="42.84429" lon="-0.31524">
        <ele>2490.87109375</ele>
        <time>2014-03-12T08:56:58Z</time>
      </trkpt>
      <trkpt lat="42.84437" lon="-0.31491">
        <ele>2490.9799804688</ele>
        <time>2014-03-12T08:57:36Z</time>
      </trkpt>
      <trkpt lat="42.84442" lon="-0.3147">
        <ele>2490.7209472656</ele>
        <time>2014-03-12T08:57:59Z</time>
      </trkpt>
      <trkpt lat="42.84442" lon="-0.3145">
        <ele>2490.7189941406</ele>
        <time>2014-03-12T08:58:21Z</time>
      </trkpt>
      <trkpt lat="42.84441" lon="-0.31421">
        <ele>2491.6259765625</ele>
        <time>2014-03-12T08:58:54Z</time>
      </trkpt>
      <trkpt lat="42.84445" lon="-0.314">
        <ele>2493.1459960938</ele>
        <time>2014-03-12T08:59:21Z</time>
      </trkpt>
      <trkpt lat="42.84446" lon="-0.31373">
        <ele>2494.2041015625</ele>
        <time>2014-03-12T08:59:52Z</time>
      </trkpt>
      <trkpt lat="42.84446" lon="-0.31347">
        <ele>2494.8610839844</ele>
        <time>2014-03-12T09:00:24Z</time>
      </trkpt>
      <trkpt lat="42.84446" lon="-0.31337">
        <ele>2496.5529785156</ele>
        <time>2014-03-12T09:00:42Z</time>
      </trkpt>
      <trkpt lat="42.84446" lon="-0.31328">
        <ele>2497.9140625</ele>
        <time>2014-03-12T09:00:59Z</time>
      </trkpt>
      <trkpt lat="42.84444" lon="-0.31318">
        <ele>2499.0390625</ele>
        <time>2014-03-12T09:01:14Z</time>
      </trkpt>
      <trkpt lat="42.84443" lon="-0.31306">
        <ele>2499.9689941406</ele>
        <time>2014-03-12T09:01:35Z</time>
      </trkpt>
      <trkpt lat="42.84443" lon="-0.31292">
        <ele>2501.3220214844</ele>
        <time>2014-03-12T09:01:55Z</time>
      </trkpt>
      <trkpt lat="42.84439" lon="-0.31279">
        <ele>2502.5620117188</ele>
        <time>2014-03-12T09:02:20Z</time>
      </trkpt>
      <trkpt lat="42.84432" lon="-0.31257">
        <ele>2503.8559570312</ele>
        <time>2014-03-12T09:02:45Z</time>
      </trkpt>
      <trkpt lat="42.84429" lon="-0.31243">
        <ele>2505.3559570312</ele>
        <time>2014-03-12T09:03:04Z</time>
      </trkpt>
      <trkpt lat="42.84427" lon="-0.31227">
        <ele>2506.8989257812</ele>
        <time>2014-03-12T09:03:23Z</time>
      </trkpt>
      <trkpt lat="42.84429" lon="-0.31211">
        <ele>2508.4709472656</ele>
        <time>2014-03-12T09:03:42Z</time>
      </trkpt>
      <trkpt lat="42.8443" lon="-0.31205">
        <ele>2508.8159179688</ele>
        <time>2014-03-12T09:03:55Z</time>
      </trkpt>
      <trkpt lat="42.8443" lon="-0.31204">
        <ele>2509.2180175781</ele>
        <time>2014-03-12T09:04:30Z</time>
      </trkpt>
      <trkpt lat="42.84429" lon="-0.31207">
        <ele>2509.8229980469</ele>
        <time>2014-03-12T09:05:18Z</time>
      </trkpt>
      <trkpt lat="42.84432" lon="-0.31209">
        <ele>2511.4851074219</ele>
        <time>2014-03-12T09:05:34Z</time>
      </trkpt>
      <trkpt lat="42.84438" lon="-0.31205">
        <ele>2513.7919921875</ele>
        <time>2014-03-12T09:05:59Z</time>
      </trkpt>
      <trkpt lat="42.8444" lon="-0.31216">
        <ele>2514.7829589844</ele>
        <time>2014-03-12T09:06:17Z</time>
      </trkpt>
      <trkpt lat="42.84443" lon="-0.31219">
        <ele>2516.00390625</ele>
        <time>2014-03-12T09:06:37Z</time>
      </trkpt>
      <trkpt lat="42.84447" lon="-0.31211">
        <ele>2518.7028808594</ele>
        <time>2014-03-12T09:06:55Z</time>
      </trkpt>
      <trkpt lat="42.8446" lon="-0.31194">
        <ele>2520.0310058594</ele>
        <time>2014-03-12T09:07:19Z</time>
      </trkpt>
      <trkpt lat="42.84463" lon="-0.3119">
        <ele>2521.6120605469</ele>
        <time>2014-03-12T09:07:39Z</time>
      </trkpt>
      <trkpt lat="42.8446" lon="-0.31205">
        <ele>2524.6750488281</ele>
        <time>2014-03-12T09:08:00Z</time>
      </trkpt>
      <trkpt lat="42.84464" lon="-0.31228">
        <ele>2527.8540039062</ele>
        <time>2014-03-12T09:08:28Z</time>
      </trkpt>
      <trkpt lat="42.84467" lon="-0.31233">
        <ele>2529.0419921875</ele>
        <time>2014-03-12T09:08:49Z</time>
      </trkpt>
      <trkpt lat="42.84472" lon="-0.31222">
        <ele>2532.1440429688</ele>
        <time>2014-03-12T09:09:11Z</time>
      </trkpt>
      <trkpt lat="42.84483" lon="-0.31205">
        <ele>2535.1909179688</ele>
        <time>2014-03-12T09:09:34Z</time>
      </trkpt>
      <trkpt lat="42.84488" lon="-0.31199">
        <ele>2536.3049316406</ele>
        <time>2014-03-12T09:09:54Z</time>
      </trkpt>
      <trkpt lat="42.84487" lon="-0.31214">
        <ele>2539.3950195312</ele>
        <time>2014-03-12T09:10:12Z</time>
      </trkpt>
      <trkpt lat="42.84492" lon="-0.31229">
        <ele>2542.0810546875</ele>
        <time>2014-03-12T09:10:37Z</time>
      </trkpt>
      <trkpt lat="42.84495" lon="-0.31229">
        <ele>2542.9240722656</ele>
        <time>2014-03-12T09:10:51Z</time>
      </trkpt>
      <trkpt lat="42.84503" lon="-0.31211">
        <ele>2546.1040039062</ele>
        <time>2014-03-12T09:11:17Z</time>
      </trkpt>
      <trkpt lat="42.84508" lon="-0.31201">
        <ele>2547.9399414062</ele>
        <time>2014-03-12T09:11:40Z</time>
      </trkpt>
      <trkpt lat="42.84512" lon="-0.31198">
        <ele>2548.1010742188</ele>
        <time>2014-03-12T09:12:15Z</time>
      </trkpt>
      <trkpt lat="42.84513" lon="-0.312">
        <ele>2549.3679199219</ele>
        <time>2014-03-12T09:12:33Z</time>
      </trkpt>
      <trkpt lat="42.84515" lon="-0.31213">
        <ele>2550.6369628906</ele>
        <time>2014-03-12T09:12:53Z</time>
      </trkpt>
      <trkpt lat="42.8452" lon="-0.31209">
        <ele>2552.4130859375</ele>
        <time>2014-03-12T09:13:06Z</time>
      </trkpt>
      <trkpt lat="42.84529" lon="-0.31197">
        <ele>2555.1130371094</ele>
        <time>2014-03-12T09:13:32Z</time>
      </trkpt>
      <trkpt lat="42.84533" lon="-0.31189">
        <ele>2556.8649902344</ele>
        <time>2014-03-12T09:13:53Z</time>
      </trkpt>
      <trkpt lat="42.84544" lon="-0.31164">
        <ele>2558.3601074219</ele>
        <time>2014-03-12T09:25:15Z</time>
      </trkpt>
      <trkpt lat="42.84545" lon="-0.31152">
        <ele>2560.3439941406</ele>
        <time>2014-03-12T09:25:30Z</time>
      </trkpt>
      <trkpt lat="42.84557" lon="-0.31147">
        <ele>2563.0969238281</ele>
        <time>2014-03-12T09:25:54Z</time>
      </trkpt>
      <trkpt lat="42.84558" lon="-0.31131">
        <ele>2565.0419921875</ele>
        <time>2014-03-12T09:26:15Z</time>
      </trkpt>
      <trkpt lat="42.84562" lon="-0.31139">
        <ele>2567.8220214844</ele>
        <time>2014-03-12T09:26:38Z</time>
      </trkpt>
      <trkpt lat="42.84564" lon="-0.31142">
        <ele>2564.8059082031</ele>
        <time>2014-03-12T09:26:45Z</time>
      </trkpt>
      <trkpt lat="42.84566" lon="-0.31149">
        <ele>2561.5869140625</ele>
        <time>2014-03-12T09:26:56Z</time>
      </trkpt>
      <trkpt lat="42.84571" lon="-0.31163">
        <ele>2560.7758789062</ele>
        <time>2014-03-12T09:27:17Z</time>
      </trkpt>
      <trkpt lat="42.84575" lon="-0.31174">
        <ele>2562.6130371094</ele>
        <time>2014-03-12T09:27:37Z</time>
      </trkpt>
      <trkpt lat="42.8458" lon="-0.31162">
        <ele>2565.0729980469</ele>
        <time>2014-03-12T09:27:56Z</time>
      </trkpt>
      <trkpt lat="42.84582" lon="-0.31155">
        <ele>2566.2080078125</ele>
        <time>2014-03-12T09:28:09Z</time>
      </trkpt>
      <trkpt lat="42.84584" lon="-0.31147">
        <ele>2568.2160644531</ele>
        <time>2014-03-12T09:28:25Z</time>
      </trkpt>
      <trkpt lat="42.84586" lon="-0.31134">
        <ele>2570.0080566406</ele>
        <time>2014-03-12T09:28:44Z</time>
      </trkpt>
      <trkpt lat="42.84584" lon="-0.31127">
        <ele>2571.0329589844</ele>
        <time>2014-03-12T09:28:59Z</time>
      </trkpt>
      <trkpt lat="42.84589" lon="-0.31134">
        <ele>2573.2849121094</ele>
        <time>2014-03-12T09:29:16Z</time>
      </trkpt>
      <trkpt lat="42.84597" lon="-0.31146">
        <ele>2576.5249023438</ele>
        <time>2014-03-12T09:29:42Z</time>
      </trkpt>
      <trkpt lat="42.84601" lon="-0.31149">
        <ele>2578.3200683594</ele>
        <time>2014-03-12T09:30:04Z</time>
      </trkpt>
      <trkpt lat="42.84599" lon="-0.31133">
        <ele>2580.7839355469</ele>
        <time>2014-03-12T09:30:22Z</time>
      </trkpt>
      <trkpt lat="42.84595" lon="-0.31116">
        <ele>2584.1540527344</ele>
        <time>2014-03-12T09:30:49Z</time>
      </trkpt>
      <trkpt lat="42.84591" lon="-0.31103">
        <ele>2586.4089355469</ele>
        <time>2014-03-12T09:31:16Z</time>
      </trkpt>
      <trkpt lat="42.84589" lon="-0.31086">
        <ele>2589.7810058594</ele>
        <time>2014-03-12T09:31:40Z</time>
      </trkpt>
      <trkpt lat="42.84591" lon="-0.31076">
        <ele>2591.6479492188</ele>
        <time>2014-03-12T09:31:59Z</time>
      </trkpt>
      <trkpt lat="42.84594" lon="-0.31066">
        <ele>2592.9499511719</ele>
        <time>2014-03-12T09:32:13Z</time>
      </trkpt>
      <trkpt lat="42.8459" lon="-0.31057">
        <ele>2595.9919433594</ele>
        <time>2014-03-12T09:32:29Z</time>
      </trkpt>
      <trkpt lat="42.84591" lon="-0.31044">
        <ele>2599.20703125</ele>
        <time>2014-03-12T09:32:54Z</time>
      </trkpt>
      <trkpt lat="42.84597" lon="-0.31044">
        <ele>2602.1740722656</ele>
        <time>2014-03-12T09:33:18Z</time>
      </trkpt>
      <trkpt lat="42.84592" lon="-0.31041">
        <ele>2605.1809082031</ele>
        <time>2014-03-12T09:34:57Z</time>
      </trkpt>
      <trkpt lat="42.84595" lon="-0.31033">
        <ele>2608.2209472656</ele>
        <time>2014-03-12T09:35:29Z</time>
      </trkpt>
      <trkpt lat="42.84605" lon="-0.31036">
        <ele>2610.4580078125</ele>
        <time>2014-03-12T09:35:57Z</time>
      </trkpt>
      <trkpt lat="42.84606" lon="-0.31038">
        <ele>2612.9680175781</ele>
        <time>2014-03-12T09:36:03Z</time>
      </trkpt>
      <trkpt lat="42.84606" lon="-0.31038">
        <ele>2613.4050292969</ele>
        <time>2014-03-12T09:36:21Z</time>
      </trkpt>
      <trkpt lat="42.84607" lon="-0.31034">
        <ele>2612.6860351562</ele>
        <time>2014-03-12T09:43:26Z</time>
      </trkpt>
      <trkpt lat="42.84607" lon="-0.31034">
        <ele>2610.9418945312</ele>
        <time>2014-03-12T09:43:27Z</time>
      </trkpt>
      <trkpt lat="42.84606" lon="-0.31034">
        <ele>2609.4409179688</ele>
        <time>2014-03-12T09:43:31Z</time>
      </trkpt>
      <trkpt lat="42.84606" lon="-0.31034">
        <ele>2611.0209960938</ele>
        <time>2014-03-12T09:43:33Z</time>
      </trkpt>
      <trkpt lat="42.84605" lon="-0.31034">
        <ele>2610.1520996094</ele>
        <time>2014-03-12T09:43:50Z</time>
      </trkpt>
      <trkpt lat="42.84605" lon="-0.31034">
        <ele>2613.7270507812</ele>
        <time>2014-03-12T09:44:05Z</time>
      </trkpt>
      <trkpt lat="42.84605" lon="-0.31034">
        <ele>2617.0100097656</ele>
        <time>2014-03-12T09:45:00Z</time>
      </trkpt>
      <trkpt lat="42.8461" lon="-0.31032">
        <ele>2612.5681152344</ele>
        <time>2014-03-12T09:46:24Z</time>
      </trkpt>
      <trkpt lat="42.84612" lon="-0.31032">
        <ele>2612.5690917969</ele>
        <time>2014-03-12T09:46:25Z</time>
      </trkpt>
      <trkpt lat="42.84615" lon="-0.3103">
        <ele>2609.5280761719</ele>
        <time>2014-03-12T09:46:31Z</time>
      </trkpt>
      <trkpt lat="42.84615" lon="-0.3103">
        <ele>2609.5319824219</ele>
        <time>2014-03-12T09:46:32Z</time>
      </trkpt>
      <trkpt lat="42.84616" lon="-0.31029">
        <ele>2608.8220214844</ele>
        <time>2014-03-12T09:46:36Z</time>
      </trkpt>
      <trkpt lat="42.84614" lon="-0.31023">
        <ele>2604.4670410156</ele>
        <time>2014-03-12T09:46:38Z</time>
      </trkpt>
      <trkpt lat="42.84612" lon="-0.31018">
        <ele>2604.4719238281</ele>
        <time>2014-03-12T09:46:39Z</time>
      </trkpt>
      <trkpt lat="42.84608" lon="-0.31009">
        <ele>2603.1311035156</ele>
        <time>2014-03-12T09:46:41Z</time>
      </trkpt>
      <trkpt lat="42.84607" lon="-0.31006">
        <ele>2602.4741210938</ele>
        <time>2014-03-12T09:46:42Z</time>
      </trkpt>
      <trkpt lat="42.84601" lon="-0.31004">
        <ele>2601.5510253906</ele>
        <time>2014-03-12T09:46:55Z</time>
      </trkpt>
      <trkpt lat="42.84605" lon="-0.31003">
        <ele>2601.8898925781</ele>
        <time>2014-03-12T09:47:13Z</time>
      </trkpt>
      <trkpt lat="42.8461" lon="-0.30999">
        <ele>2602.3989257812</ele>
        <time>2014-03-12T09:47:45Z</time>
      </trkpt>
      <trkpt lat="42.84617" lon="-0.30996">
        <ele>2601.6650390625</ele>
        <time>2014-03-12T09:55:40Z</time>
      </trkpt>
      <trkpt lat="42.84611" lon="-0.30997">
        <ele>2600.8559570312</ele>
        <time>2014-03-12T09:55:56Z</time>
      </trkpt>
      <trkpt lat="42.84607" lon="-0.30985">
        <ele>2597.5959472656</ele>
        <time>2014-03-12T09:55:59Z</time>
      </trkpt>
      <trkpt lat="42.84605" lon="-0.30979">
        <ele>2597.5959472656</ele>
        <time>2014-03-12T09:56:00Z</time>
      </trkpt>
      <trkpt lat="42.8459" lon="-0.30943">
        <ele>2593.8940429688</ele>
        <time>2014-03-12T09:56:10Z</time>
      </trkpt>
      <trkpt lat="42.8458" lon="-0.30919">
        <ele>2590.3029785156</ele>
        <time>2014-03-12T09:56:22Z</time>
      </trkpt>
      <trkpt lat="42.84581" lon="-0.309">
        <ele>2588.1398925781</ele>
        <time>2014-03-12T09:56:32Z</time>
      </trkpt>
      <trkpt lat="42.8458" lon="-0.30894">
        <ele>2586.6149902344</ele>
        <time>2014-03-12T09:56:34Z</time>
      </trkpt>
      <trkpt lat="42.84581" lon="-0.30882">
        <ele>2584.7939453125</ele>
        <time>2014-03-12T09:56:39Z</time>
      </trkpt>
      <trkpt lat="42.84582" lon="-0.30877">
        <ele>2583.3000488281</ele>
        <time>2014-03-12T09:56:43Z</time>
      </trkpt>
      <trkpt lat="42.84583" lon="-0.30874">
        <ele>2581.5300292969</ele>
        <time>2014-03-12T09:56:45Z</time>
      </trkpt>
      <trkpt lat="42.84587" lon="-0.30871">
        <ele>2578.6379394531</ele>
        <time>2014-03-12T09:56:48Z</time>
      </trkpt>
      <trkpt lat="42.84589" lon="-0.30869">
        <ele>2575.2709960938</ele>
        <time>2014-03-12T09:56:49Z</time>
      </trkpt>
      <trkpt lat="42.84591" lon="-0.30868">
        <ele>2572.2880859375</ele>
        <time>2014-03-12T09:56:50Z</time>
      </trkpt>
      <trkpt lat="42.84594" lon="-0.30861">
        <ele>2568.162109375</ele>
        <time>2014-03-12T09:56:52Z</time>
      </trkpt>
      <trkpt lat="42.84595" lon="-0.30858">
        <ele>2568.1721191406</ele>
        <time>2014-03-12T09:56:53Z</time>
      </trkpt>
      <trkpt lat="42.84601" lon="-0.30848">
        <ele>2565.2338867188</ele>
        <time>2014-03-12T09:56:55Z</time>
      </trkpt>
      <trkpt lat="42.84611" lon="-0.30843">
        <ele>2558.1520996094</ele>
        <time>2014-03-12T09:56:57Z</time>
      </trkpt>
      <trkpt lat="42.84616" lon="-0.30839">
        <ele>2558.1669921875</ele>
        <time>2014-03-12T09:56:58Z</time>
      </trkpt>
      <trkpt lat="42.84621" lon="-0.30831">
        <ele>2552.3679199219</ele>
        <time>2014-03-12T09:56:59Z</time>
      </trkpt>
      <trkpt lat="42.8462" lon="-0.30801">
        <ele>2549.1999511719</ele>
        <time>2014-03-12T09:57:02Z</time>
      </trkpt>
      <trkpt lat="42.84625" lon="-0.30792">
        <ele>2550.9670410156</ele>
        <time>2014-03-12T09:57:08Z</time>
      </trkpt>
      <trkpt lat="42.84626" lon="-0.30792">
        <ele>2550.8369140625</ele>
        <time>2014-03-12T09:57:10Z</time>
      </trkpt>
      <trkpt lat="42.84632" lon="-0.308">
        <ele>2547.7490234375</ele>
        <time>2014-03-12T09:57:13Z</time>
      </trkpt>
      <trkpt lat="42.8463" lon="-0.30808">
        <ele>2547.7648925781</ele>
        <time>2014-03-12T09:57:14Z</time>
      </trkpt>
      <trkpt lat="42.84633" lon="-0.30821">
        <ele>2544.4750976562</ele>
        <time>2014-03-12T09:57:16Z</time>
      </trkpt>
      <trkpt lat="42.84642" lon="-0.30821">
        <ele>2539.8420410156</ele>
        <time>2014-03-12T09:57:20Z</time>
      </trkpt>
      <trkpt lat="42.84646" lon="-0.30823">
        <ele>2539.8559570312</ele>
        <time>2014-03-12T09:57:21Z</time>
      </trkpt>
      <trkpt lat="42.84653" lon="-0.30827">
        <ele>2537.6589355469</ele>
        <time>2014-03-12T09:57:23Z</time>
      </trkpt>
      <trkpt lat="42.84658" lon="-0.30824">
        <ele>2534.4829101562</ele>
        <time>2014-03-12T09:57:24Z</time>
      </trkpt>
      <trkpt lat="42.84663" lon="-0.30818">
        <ele>2534.4829101562</ele>
        <time>2014-03-12T09:57:25Z</time>
      </trkpt>
      <trkpt lat="42.84665" lon="-0.30809">
        <ele>2529.1931152344</ele>
        <time>2014-03-12T09:57:26Z</time>
      </trkpt>
      <trkpt lat="42.84673" lon="-0.30793">
        <ele>2527.3811035156</ele>
        <time>2014-03-12T09:57:28Z</time>
      </trkpt>
      <trkpt lat="42.84683" lon="-0.30764">
        <ele>2527.4780273438</ele>
        <time>2014-03-12T09:57:35Z</time>
      </trkpt>
      <trkpt lat="42.84686" lon="-0.30755">
        <ele>2526.7919921875</ele>
        <time>2014-03-12T09:58:46Z</time>
      </trkpt>
      <trkpt lat="42.84686" lon="-0.30736">
        <ele>2524.8911132812</ele>
        <time>2014-03-12T09:58:52Z</time>
      </trkpt>
      <trkpt lat="42.84687" lon="-0.30716">
        <ele>2521.7438964844</ele>
        <time>2014-03-12T09:58:55Z</time>
      </trkpt>
      <trkpt lat="42.84689" lon="-0.30707">
        <ele>2521.7619628906</ele>
        <time>2014-03-12T09:58:56Z</time>
      </trkpt>
      <trkpt lat="42.84702" lon="-0.30697">
        <ele>2516.5170898438</ele>
        <time>2014-03-12T09:58:58Z</time>
      </trkpt>
      <trkpt lat="42.84713" lon="-0.30667">
        <ele>2515.7360839844</ele>
        <time>2014-03-12T09:59:04Z</time>
      </trkpt>
      <trkpt lat="42.84712" lon="-0.30657">
        <ele>2514.8859863281</ele>
        <time>2014-03-12T09:59:06Z</time>
      </trkpt>
      <trkpt lat="42.8471" lon="-0.30637">
        <ele>2513.75390625</ele>
        <time>2014-03-12T09:59:10Z</time>
      </trkpt>
      <trkpt lat="42.84706" lon="-0.30621">
        <ele>2511.5969238281</ele>
        <time>2014-03-12T09:59:13Z</time>
      </trkpt>
      <trkpt lat="42.84701" lon="-0.30611">
        <ele>2509.6220703125</ele>
        <time>2014-03-12T09:59:15Z</time>
      </trkpt>
      <trkpt lat="42.84686" lon="-0.30583">
        <ele>2507.0729980469</ele>
        <time>2014-03-12T09:59:25Z</time>
      </trkpt>
      <trkpt lat="42.84673" lon="-0.3055">
        <ele>2503.416015625</ele>
        <time>2014-03-12T09:59:35Z</time>
      </trkpt>
      <trkpt lat="42.8467" lon="-0.30545">
        <ele>2503.4340820312</ele>
        <time>2014-03-12T09:59:36Z</time>
      </trkpt>
      <trkpt lat="42.84665" lon="-0.30536">
        <ele>2502.1550292969</ele>
        <time>2014-03-12T09:59:38Z</time>
      </trkpt>
      <trkpt lat="42.84642" lon="-0.30505">
        <ele>2498.5520019531</ele>
        <time>2014-03-12T09:59:49Z</time>
      </trkpt>
      <trkpt lat="42.8464" lon="-0.30504">
        <ele>2498.5668945312</ele>
        <time>2014-03-12T09:59:50Z</time>
      </trkpt>
      <trkpt lat="42.84622" lon="-0.30508">
        <ele>2496.5280761719</ele>
        <time>2014-03-12T10:00:02Z</time>
      </trkpt>
      <trkpt lat="42.84618" lon="-0.30508">
        <ele>2496.8549804688</ele>
        <time>2014-03-12T10:00:49Z</time>
      </trkpt>
      <trkpt lat="42.84619" lon="-0.30508">
        <ele>2496.9450683594</ele>
        <time>2014-03-12T10:01:15Z</time>
      </trkpt>
      <trkpt lat="42.84622" lon="-0.30505">
        <ele>2492.8740234375</ele>
        <time>2014-03-12T10:01:18Z</time>
      </trkpt>
      <trkpt lat="42.84625" lon="-0.30502">
        <ele>2492.8830566406</ele>
        <time>2014-03-12T10:01:19Z</time>
      </trkpt>
      <trkpt lat="42.84631" lon="-0.30497">
        <ele>2490.8349609375</ele>
        <time>2014-03-12T10:01:21Z</time>
      </trkpt>
      <trkpt lat="42.84636" lon="-0.30491">
        <ele>2487.3120117188</ele>
        <time>2014-03-12T10:01:23Z</time>
      </trkpt>
      <trkpt lat="42.84638" lon="-0.30488">
        <ele>2487.3229980469</ele>
        <time>2014-03-12T10:01:24Z</time>
      </trkpt>
      <trkpt lat="42.84635" lon="-0.30479">
        <ele>2484.9970703125</ele>
        <time>2014-03-12T10:01:26Z</time>
      </trkpt>
      <trkpt lat="42.84634" lon="-0.30472">
        <ele>2481.8530273438</ele>
        <time>2014-03-12T10:01:27Z</time>
      </trkpt>
      <trkpt lat="42.84636" lon="-0.30464">
        <ele>2481.8630371094</ele>
        <time>2014-03-12T10:01:28Z</time>
      </trkpt>
      <trkpt lat="42.84639" lon="-0.30457">
        <ele>2476.8330078125</ele>
        <time>2014-03-12T10:01:29Z</time>
      </trkpt>
      <trkpt lat="42.84647" lon="-0.30446">
        <ele>2473.4020996094</ele>
        <time>2014-03-12T10:01:31Z</time>
      </trkpt>
      <trkpt lat="42.84655" lon="-0.30437">
        <ele>2471.5358886719</ele>
        <time>2014-03-12T10:01:33Z</time>
      </trkpt>
      <trkpt lat="42.84662" lon="-0.30429">
        <ele>2470.2880859375</ele>
        <time>2014-03-12T10:01:35Z</time>
      </trkpt>
      <trkpt lat="42.84661" lon="-0.30419">
        <ele>2466.4289550781</ele>
        <time>2014-03-12T10:01:37Z</time>
      </trkpt>
      <trkpt lat="42.84663" lon="-0.30406">
        <ele>2463.3830566406</ele>
        <time>2014-03-12T10:01:39Z</time>
      </trkpt>
      <trkpt lat="42.84666" lon="-0.304">
        <ele>2463.3979492188</ele>
        <time>2014-03-12T10:01:40Z</time>
      </trkpt>
      <trkpt lat="42.84673" lon="-0.30389">
        <ele>2460.6950683594</ele>
        <time>2014-03-12T10:01:42Z</time>
      </trkpt>
      <trkpt lat="42.84679" lon="-0.30384">
        <ele>2458.5229492188</ele>
        <time>2014-03-12T10:01:44Z</time>
      </trkpt>
      <trkpt lat="42.84687" lon="-0.30374">
        <ele>2457.0070800781</ele>
        <time>2014-03-12T10:01:47Z</time>
      </trkpt>
      <trkpt lat="42.8469" lon="-0.30366">
        <ele>2456.6040039062</ele>
        <time>2014-03-12T10:01:49Z</time>
      </trkpt>
      <trkpt lat="42.84695" lon="-0.30362">
        <ele>2455.1040039062</ele>
        <time>2014-03-12T10:01:51Z</time>
      </trkpt>
      <trkpt lat="42.84697" lon="-0.30362">
        <ele>2453.6389160156</ele>
        <time>2014-03-12T10:01:54Z</time>
      </trkpt>
      <trkpt lat="42.84707" lon="-0.30358">
        <ele>2451.4750976562</ele>
        <time>2014-03-12T10:01:59Z</time>
      </trkpt>
      <trkpt lat="42.84708" lon="-0.30351">
        <ele>2450.662109375</ele>
        <time>2014-03-12T10:02:01Z</time>
      </trkpt>
      <trkpt lat="42.8471" lon="-0.30342">
        <ele>2448.1088867188</ele>
        <time>2014-03-12T10:02:03Z</time>
      </trkpt>
      <trkpt lat="42.84713" lon="-0.30329">
        <ele>2441.9990234375</ele>
        <time>2014-03-12T10:02:06Z</time>
      </trkpt>
      <trkpt lat="42.84716" lon="-0.30328">
        <ele>2440.5920410156</ele>
        <time>2014-03-12T10:02:07Z</time>
      </trkpt>
      <trkpt lat="42.84719" lon="-0.30315">
        <ele>2439.3930664062</ele>
        <time>2014-03-12T10:02:10Z</time>
      </trkpt>
      <trkpt lat="42.84723" lon="-0.30306">
        <ele>2436.0830078125</ele>
        <time>2014-03-12T10:02:12Z</time>
      </trkpt>
      <trkpt lat="42.84729" lon="-0.30301">
        <ele>2432.9470214844</ele>
        <time>2014-03-12T10:02:14Z</time>
      </trkpt>
      <trkpt lat="42.84729" lon="-0.30296">
        <ele>2432.958984375</ele>
        <time>2014-03-12T10:02:15Z</time>
      </trkpt>
      <trkpt lat="42.84734" lon="-0.30287">
        <ele>2430.7099609375</ele>
        <time>2014-03-12T10:02:17Z</time>
      </trkpt>
      <trkpt lat="42.84735" lon="-0.30276">
        <ele>2428.0539550781</ele>
        <time>2014-03-12T10:02:19Z</time>
      </trkpt>
      <trkpt lat="42.84732" lon="-0.30265">
        <ele>2425.6389160156</ele>
        <time>2014-03-12T10:02:21Z</time>
      </trkpt>
      <trkpt lat="42.84735" lon="-0.30252">
        <ele>2421.0620117188</ele>
        <time>2014-03-12T10:02:24Z</time>
      </trkpt>
      <trkpt lat="42.84735" lon="-0.30243">
        <ele>2418.1840820312</ele>
        <time>2014-03-12T10:02:26Z</time>
      </trkpt>
      <trkpt lat="42.84733" lon="-0.30247">
        <ele>2416.1320800781</ele>
        <time>2014-03-12T10:02:35Z</time>
      </trkpt>
      <trkpt lat="42.84713" lon="-0.30245">
        <ele>2414.7099609375</ele>
        <time>2014-03-12T10:02:52Z</time>
      </trkpt>
      <trkpt lat="42.84699" lon="-0.30254">
        <ele>2413.70703125</ele>
        <time>2014-03-12T10:03:05Z</time>
      </trkpt>
      <trkpt lat="42.84697" lon="-0.30259">
        <ele>2415.5778808594</ele>
        <time>2014-03-12T10:04:02Z</time>
      </trkpt>
      <trkpt lat="42.84697" lon="-0.30263">
        <ele>2415.5869140625</ele>
        <time>2014-03-12T10:05:24Z</time>
      </trkpt>
      <trkpt lat="42.84694" lon="-0.30271">
        <ele>2416.91796875</ele>
        <time>2014-03-12T10:06:02Z</time>
      </trkpt>
      <trkpt lat="42.84693" lon="-0.30273">
        <ele>2417.3369140625</ele>
        <time>2014-03-12T10:06:30Z</time>
      </trkpt>
      <trkpt lat="42.84689" lon="-0.30278">
        <ele>2417.1669921875</ele>
        <time>2014-03-12T10:12:55Z</time>
      </trkpt>
      <trkpt lat="42.84663" lon="-0.30307">
        <ele>2415.0620117188</ele>
        <time>2014-03-12T10:13:10Z</time>
      </trkpt>
      <trkpt lat="42.84649" lon="-0.3032">
        <ele>2412.5249023438</ele>
        <time>2014-03-12T10:13:19Z</time>
      </trkpt>
      <trkpt lat="42.84647" lon="-0.30323">
        <ele>2412.8249511719</ele>
        <time>2014-03-12T10:13:32Z</time>
      </trkpt>
      <trkpt lat="42.84641" lon="-0.3033">
        <ele>2412.1020507812</ele>
        <time>2014-03-12T10:14:32Z</time>
      </trkpt>
      <trkpt lat="42.84584" lon="-0.30246">
        <ele>2347.4970703125</ele>
        <time>2014-03-12T11:30:42Z</time>
      </trkpt>
      <trkpt lat="42.84592" lon="-0.30249">
        <ele>2354.4479980469</ele>
        <time>2014-03-12T11:30:47Z</time>
      </trkpt>
      <trkpt lat="42.84592" lon="-0.30249">
        <ele>2346.6489257812</ele>
        <time>2014-03-12T11:30:48Z</time>
      </trkpt>
      <trkpt lat="42.84601" lon="-0.30252">
        <ele>2345.8269042969</ele>
        <time>2014-03-12T11:30:55Z</time>
      </trkpt>
      <trkpt lat="42.84616" lon="-0.30263">
        <ele>2344.7919921875</ele>
        <time>2014-03-12T11:30:59Z</time>
      </trkpt>
      <trkpt lat="42.84621" lon="-0.30262">
        <ele>2341.7819824219</ele>
        <time>2014-03-12T11:31:02Z</time>
      </trkpt>
      <trkpt lat="42.84621" lon="-0.30244">
        <ele>2336.1669921875</ele>
        <time>2014-03-12T11:31:07Z</time>
      </trkpt>
      <trkpt lat="42.84625" lon="-0.30237">
        <ele>2336.1669921875</ele>
        <time>2014-03-12T11:31:08Z</time>
      </trkpt>
      <trkpt lat="42.8463" lon="-0.30229">
        <ele>2331.4140625</ele>
        <time>2014-03-12T11:31:09Z</time>
      </trkpt>
      <trkpt lat="42.84642" lon="-0.30207">
        <ele>2329.1889648438</ele>
        <time>2014-03-12T11:31:12Z</time>
      </trkpt>
      <trkpt lat="42.84662" lon="-0.3019">
        <ele>2327.6740722656</ele>
        <time>2014-03-12T11:31:17Z</time>
      </trkpt>
      <trkpt lat="42.84666" lon="-0.30186">
        <ele>2326.4030761719</ele>
        <time>2014-03-12T11:31:18Z</time>
      </trkpt>
      <trkpt lat="42.84678" lon="-0.30167">
        <ele>2324.8059082031</ele>
        <time>2014-03-12T11:31:23Z</time>
      </trkpt>
      <trkpt lat="42.84683" lon="-0.30149">
        <ele>2322.2839355469</ele>
        <time>2014-03-12T11:31:27Z</time>
      </trkpt>
      <trkpt lat="42.84687" lon="-0.30117">
        <ele>2319.6030273438</ele>
        <time>2014-03-12T11:31:35Z</time>
      </trkpt>
      <trkpt lat="42.84717" lon="-0.30083">
        <ele>2316.4951171875</ele>
        <time>2014-03-12T11:31:48Z</time>
      </trkpt>
      <trkpt lat="42.84732" lon="-0.30071">
        <ele>2315.1040039062</ele>
        <time>2014-03-12T11:31:54Z</time>
      </trkpt>
      <trkpt lat="42.84729" lon="-0.30059">
        <ele>2311.2629394531</ele>
        <time>2014-03-12T11:31:57Z</time>
      </trkpt>
      <trkpt lat="42.8473" lon="-0.30052">
        <ele>2308.7390136719</ele>
        <time>2014-03-12T11:31:59Z</time>
      </trkpt>
      <trkpt lat="42.84737" lon="-0.30046">
        <ele>2306.7529296875</ele>
        <time>2014-03-12T11:32:01Z</time>
      </trkpt>
      <trkpt lat="42.84741" lon="-0.30031">
        <ele>2303.5249023438</ele>
        <time>2014-03-12T11:32:04Z</time>
      </trkpt>
      <trkpt lat="42.84742" lon="-0.30026">
        <ele>2301.3249511719</ele>
        <time>2014-03-12T11:32:05Z</time>
      </trkpt>
      <trkpt lat="42.84744" lon="-0.30008">
        <ele>2299.6049804688</ele>
        <time>2014-03-12T11:32:08Z</time>
      </trkpt>
      <trkpt lat="42.84746" lon="-0.29994">
        <ele>2297.6240234375</ele>
        <time>2014-03-12T11:32:10Z</time>
      </trkpt>
      <trkpt lat="42.84747" lon="-0.29972">
        <ele>2293.6201171875</ele>
        <time>2014-03-12T11:32:13Z</time>
      </trkpt>
      <trkpt lat="42.84748" lon="-0.29938">
        <ele>2291.0280761719</ele>
        <time>2014-03-12T11:32:22Z</time>
      </trkpt>
      <trkpt lat="42.84747" lon="-0.29902">
        <ele>2287.4599609375</ele>
        <time>2014-03-12T11:32:30Z</time>
      </trkpt>
      <trkpt lat="42.84747" lon="-0.2989">
        <ele>2286.8249511719</ele>
        <time>2014-03-12T11:32:37Z</time>
      </trkpt>
      <trkpt lat="42.84756" lon="-0.29895">
        <ele>2282.0249023438</ele>
        <time>2014-03-12T11:32:40Z</time>
      </trkpt>
      <trkpt lat="42.84758" lon="-0.29894">
        <ele>2282.0249023438</ele>
        <time>2014-03-12T11:32:41Z</time>
      </trkpt>
      <trkpt lat="42.84761" lon="-0.29891">
        <ele>2278.8278808594</ele>
        <time>2014-03-12T11:32:42Z</time>
      </trkpt>
      <trkpt lat="42.84766" lon="-0.29892">
        <ele>2278.8269042969</ele>
        <time>2014-03-12T11:32:43Z</time>
      </trkpt>
      <trkpt lat="42.84768" lon="-0.29891">
        <ele>2274.0629882812</ele>
        <time>2014-03-12T11:32:44Z</time>
      </trkpt>
      <trkpt lat="42.84766" lon="-0.29886">
        <ele>2272.458984375</ele>
        <time>2014-03-12T11:32:47Z</time>
      </trkpt>
      <trkpt lat="42.84765" lon="-0.29885">
        <ele>2272.3479003906</ele>
        <time>2014-03-12T11:32:51Z</time>
      </trkpt>
      <trkpt lat="42.84776" lon="-0.29888">
        <ele>2268.7309570312</ele>
        <time>2014-03-12T11:32:55Z</time>
      </trkpt>
      <trkpt lat="42.8478" lon="-0.29886">
        <ele>2265.5119628906</ele>
        <time>2014-03-12T11:32:56Z</time>
      </trkpt>
      <trkpt lat="42.8479" lon="-0.2988">
        <ele>2262.8979492188</ele>
        <time>2014-03-12T11:32:59Z</time>
      </trkpt>
      <trkpt lat="42.84794" lon="-0.2988">
        <ele>2259.2399902344</ele>
        <time>2014-03-12T11:33:00Z</time>
      </trkpt>
      <trkpt lat="42.84798" lon="-0.2988">
        <ele>2259.2390136719</ele>
        <time>2014-03-12T11:33:01Z</time>
      </trkpt>
      <trkpt lat="42.84801" lon="-0.29876">
        <ele>2256.0139160156</ele>
        <time>2014-03-12T11:33:02Z</time>
      </trkpt>
      <trkpt lat="42.84805" lon="-0.29876">
        <ele>2252.4519042969</ele>
        <time>2014-03-12T11:33:03Z</time>
      </trkpt>
      <trkpt lat="42.84811" lon="-0.29879">
        <ele>2252.4519042969</ele>
        <time>2014-03-12T11:33:04Z</time>
      </trkpt>
      <trkpt lat="42.84819" lon="-0.2988">
        <ele>2249.7661132812</ele>
        <time>2014-03-12T11:33:06Z</time>
      </trkpt>
      <trkpt lat="42.84824" lon="-0.29882">
        <ele>2246.4860839844</ele>
        <time>2014-03-12T11:33:07Z</time>
      </trkpt>
      <trkpt lat="42.84834" lon="-0.29874">
        <ele>2241.3869628906</ele>
        <time>2014-03-12T11:33:10Z</time>
      </trkpt>
      <trkpt lat="42.84838" lon="-0.29871">
        <ele>2241.3879394531</ele>
        <time>2014-03-12T11:33:11Z</time>
      </trkpt>
      <trkpt lat="42.84844" lon="-0.29869">
        <ele>2238.3330078125</ele>
        <time>2014-03-12T11:33:12Z</time>
      </trkpt>
      <trkpt lat="42.84852" lon="-0.29858">
        <ele>2234.0329589844</ele>
        <time>2014-03-12T11:33:14Z</time>
      </trkpt>
      <trkpt lat="42.84855" lon="-0.2985">
        <ele>2234.0329589844</ele>
        <time>2014-03-12T11:33:15Z</time>
      </trkpt>
      <trkpt lat="42.84863" lon="-0.29832">
        <ele>2230.25390625</ele>
        <time>2014-03-12T11:33:17Z</time>
      </trkpt>
      <trkpt lat="42.84866" lon="-0.29823">
        <ele>2230.2548828125</ele>
        <time>2014-03-12T11:33:18Z</time>
      </trkpt>
      <trkpt lat="42.84879" lon="-0.29806">
        <ele>2229.5349121094</ele>
        <time>2014-03-12T11:33:22Z</time>
      </trkpt>
      <trkpt lat="42.84885" lon="-0.29804">
        <ele>2230.0510253906</ele>
        <time>2014-03-12T11:33:32Z</time>
      </trkpt>
      <trkpt lat="42.84887" lon="-0.29802">
        <ele>2229.8149414062</ele>
        <time>2014-03-12T11:34:05Z</time>
      </trkpt>
      <trkpt lat="42.84887" lon="-0.29802">
        <ele>2229.5100097656</ele>
        <time>2014-03-12T11:34:47Z</time>
      </trkpt>
      <trkpt lat="42.849" lon="-0.298">
        <ele>2227.1840820312</ele>
        <time>2014-03-12T11:34:53Z</time>
      </trkpt>
      <trkpt lat="42.84904" lon="-0.298">
        <ele>2225.6689453125</ele>
        <time>2014-03-12T11:34:54Z</time>
      </trkpt>
      <trkpt lat="42.84927" lon="-0.29796">
        <ele>2222.0559082031</ele>
        <time>2014-03-12T11:34:59Z</time>
      </trkpt>
      <trkpt lat="42.84931" lon="-0.29796">
        <ele>2222.0559082031</ele>
        <time>2014-03-12T11:35:00Z</time>
      </trkpt>
      <trkpt lat="42.84959" lon="-0.29788">
        <ele>2218.3759765625</ele>
        <time>2014-03-12T11:35:06Z</time>
      </trkpt>
      <trkpt lat="42.84964" lon="-0.29785">
        <ele>2218.375</ele>
        <time>2014-03-12T11:35:07Z</time>
      </trkpt>
      <trkpt lat="42.84987" lon="-0.2977">
        <ele>2214.9379882812</ele>
        <time>2014-03-12T11:35:13Z</time>
      </trkpt>
      <trkpt lat="42.84991" lon="-0.29767">
        <ele>2214.9379882812</ele>
        <time>2014-03-12T11:35:14Z</time>
      </trkpt>
      <trkpt lat="42.85017" lon="-0.29748">
        <ele>2211.2890625</ele>
        <time>2014-03-12T11:35:20Z</time>
      </trkpt>
      <trkpt lat="42.85022" lon="-0.29744">
        <ele>2211.287109375</ele>
        <time>2014-03-12T11:35:21Z</time>
      </trkpt>
      <trkpt lat="42.85031" lon="-0.29738">
        <ele>2210.2299804688</ele>
        <time>2014-03-12T11:35:23Z</time>
      </trkpt>
      <trkpt lat="42.85067" lon="-0.29726">
        <ele>2206.626953125</ele>
        <time>2014-03-12T11:35:30Z</time>
      </trkpt>
      <trkpt lat="42.85078" lon="-0.29725">
        <ele>2205.287109375</ele>
        <time>2014-03-12T11:35:32Z</time>
      </trkpt>
      <trkpt lat="42.85106" lon="-0.29723">
        <ele>2202.4560546875</ele>
        <time>2014-03-12T11:35:37Z</time>
      </trkpt>
      <trkpt lat="42.85144" lon="-0.29718">
        <ele>2199.7958984375</ele>
        <time>2014-03-12T11:35:45Z</time>
      </trkpt>
      <trkpt lat="42.85186" lon="-0.29697">
        <ele>2198.0219726562</ele>
        <time>2014-03-12T11:35:58Z</time>
      </trkpt>
      <trkpt lat="42.85215" lon="-0.29682">
        <ele>2197.7319335938</ele>
        <time>2014-03-12T11:36:12Z</time>
      </trkpt>
      <trkpt lat="42.85248" lon="-0.29669">
        <ele>2196.2290039062</ele>
        <time>2014-03-12T11:36:26Z</time>
      </trkpt>
      <trkpt lat="42.85255" lon="-0.2966">
        <ele>2195.8630371094</ele>
        <time>2014-03-12T11:36:37Z</time>
      </trkpt>
      <trkpt lat="42.85254" lon="-0.29658">
        <ele>2196.1110839844</ele>
        <time>2014-03-12T11:37:13Z</time>
      </trkpt>
      <trkpt lat="42.85269" lon="-0.29642">
        <ele>2191.5959472656</ele>
        <time>2014-03-12T11:38:28Z</time>
      </trkpt>
      <trkpt lat="42.85273" lon="-0.29636">
        <ele>2191.5939941406</ele>
        <time>2014-03-12T11:38:29Z</time>
      </trkpt>
      <trkpt lat="42.8528" lon="-0.29625">
        <ele>2190.1149902344</ele>
        <time>2014-03-12T11:38:31Z</time>
      </trkpt>
      <trkpt lat="42.85307" lon="-0.29591">
        <ele>2187.8220214844</ele>
        <time>2014-03-12T11:38:41Z</time>
      </trkpt>
      <trkpt lat="42.85312" lon="-0.29588">
        <ele>2186.6650390625</ele>
        <time>2014-03-12T11:38:51Z</time>
      </trkpt>
      <trkpt lat="42.85312" lon="-0.29588">
        <ele>2186.3579101562</ele>
        <time>2014-03-12T11:39:00Z</time>
      </trkpt>
      <trkpt lat="42.85315" lon="-0.29601">
        <ele>2184.9599609375</ele>
        <time>2014-03-12T11:39:03Z</time>
      </trkpt>
      <trkpt lat="42.85315" lon="-0.29611">
        <ele>2180.0148925781</ele>
        <time>2014-03-12T11:39:05Z</time>
      </trkpt>
      <trkpt lat="42.85319" lon="-0.29614">
        <ele>2180.0139160156</ele>
        <time>2014-03-12T11:39:06Z</time>
      </trkpt>
      <trkpt lat="42.85326" lon="-0.2962">
        <ele>2177.1411132812</ele>
        <time>2014-03-12T11:39:08Z</time>
      </trkpt>
      <trkpt lat="42.85331" lon="-0.29619">
        <ele>2172.3278808594</ele>
        <time>2014-03-12T11:39:09Z</time>
      </trkpt>
      <trkpt lat="42.85336" lon="-0.29616">
        <ele>2172.3249511719</ele>
        <time>2014-03-12T11:39:10Z</time>
      </trkpt>
      <trkpt lat="42.8534" lon="-0.29611">
        <ele>2169.7819824219</ele>
        <time>2014-03-12T11:39:11Z</time>
      </trkpt>
      <trkpt lat="42.85347" lon="-0.29603">
        <ele>2168.8430175781</ele>
        <time>2014-03-12T11:39:13Z</time>
      </trkpt>
      <trkpt lat="42.85361" lon="-0.29576">
        <ele>2166.1059570312</ele>
        <time>2014-03-12T11:39:23Z</time>
      </trkpt>
      <trkpt lat="42.85363" lon="-0.29576">
        <ele>2165.7370605469</ele>
        <time>2014-03-12T11:39:30Z</time>
      </trkpt>
      <trkpt lat="42.85363" lon="-0.29581">
        <ele>2164.2080078125</ele>
        <time>2014-03-12T11:39:33Z</time>
      </trkpt>
      <trkpt lat="42.85364" lon="-0.29583">
        <ele>2162.5939941406</ele>
        <time>2014-03-12T11:39:35Z</time>
      </trkpt>
      <trkpt lat="42.85363" lon="-0.29585">
        <ele>2160.0891113281</ele>
        <time>2014-03-12T11:39:39Z</time>
      </trkpt>
      <trkpt lat="42.85376" lon="-0.29576">
        <ele>2156.2170410156</ele>
        <time>2014-03-12T11:39:42Z</time>
      </trkpt>
      <trkpt lat="42.85378" lon="-0.29587">
        <ele>2154.962890625</ele>
        <time>2014-03-12T11:39:45Z</time>
      </trkpt>
      <trkpt lat="42.85377" lon="-0.29594">
        <ele>2151.3249511719</ele>
        <time>2014-03-12T11:39:46Z</time>
      </trkpt>
      <trkpt lat="42.85375" lon="-0.296">
        <ele>2151.3259277344</ele>
        <time>2014-03-12T11:39:47Z</time>
      </trkpt>
      <trkpt lat="42.85374" lon="-0.29606">
        <ele>2147.6279296875</ele>
        <time>2014-03-12T11:39:49Z</time>
      </trkpt>
      <trkpt lat="42.85374" lon="-0.29608">
        <ele>2147.6311035156</ele>
        <time>2014-03-12T11:39:50Z</time>
      </trkpt>
      <trkpt lat="42.8538" lon="-0.29616">
        <ele>2145.3889160156</ele>
        <time>2014-03-12T11:39:52Z</time>
      </trkpt>
      <trkpt lat="42.85387" lon="-0.29618">
        <ele>2140.8540039062</ele>
        <time>2014-03-12T11:39:53Z</time>
      </trkpt>
      <trkpt lat="42.85394" lon="-0.29614">
        <ele>2140.8569335938</ele>
        <time>2014-03-12T11:39:54Z</time>
      </trkpt>
      <trkpt lat="42.85405" lon="-0.29606">
        <ele>2133.2438964844</ele>
        <time>2014-03-12T11:39:56Z</time>
      </trkpt>
      <trkpt lat="42.85412" lon="-0.29601">
        <ele>2133.25</ele>
        <time>2014-03-12T11:39:57Z</time>
      </trkpt>
      <trkpt lat="42.85425" lon="-0.29591">
        <ele>2131.0759277344</ele>
        <time>2014-03-12T11:39:59Z</time>
      </trkpt>
      <trkpt lat="42.8546" lon="-0.29572">
        <ele>2128.5700683594</ele>
        <time>2014-03-12T11:40:05Z</time>
      </trkpt>
      <trkpt lat="42.85486" lon="-0.29559">
        <ele>2128.9020996094</ele>
        <time>2014-03-12T11:40:15Z</time>
      </trkpt>
      <trkpt lat="42.85523" lon="-0.29552">
        <ele>2126.3520507812</ele>
        <time>2014-03-12T11:40:27Z</time>
      </trkpt>
      <trkpt lat="42.85545" lon="-0.29539">
        <ele>2123.1069335938</ele>
        <time>2014-03-12T11:40:33Z</time>
      </trkpt>
      <trkpt lat="42.85555" lon="-0.29528">
        <ele>2124.208984375</ele>
        <time>2014-03-12T11:40:42Z</time>
      </trkpt>
      <trkpt lat="42.85558" lon="-0.29526">
        <ele>2124.2119140625</ele>
        <time>2014-03-12T11:40:53Z</time>
      </trkpt>
      <trkpt lat="42.85569" lon="-0.29517">
        <ele>2122.3168945312</ele>
        <time>2014-03-12T11:40:59Z</time>
      </trkpt>
      <trkpt lat="42.85583" lon="-0.29506">
        <ele>2118.7570800781</ele>
        <time>2014-03-12T11:41:03Z</time>
      </trkpt>
      <trkpt lat="42.85587" lon="-0.29503">
        <ele>2118.75390625</ele>
        <time>2014-03-12T11:41:04Z</time>
      </trkpt>
      <trkpt lat="42.85597" lon="-0.29497">
        <ele>2117.3139648438</ele>
        <time>2014-03-12T11:41:06Z</time>
      </trkpt>
      <trkpt lat="42.85608" lon="-0.29491">
        <ele>2115.5969238281</ele>
        <time>2014-03-12T11:41:08Z</time>
      </trkpt>
      <trkpt lat="42.85619" lon="-0.29484">
        <ele>2113.1899414062</ele>
        <time>2014-03-12T11:41:10Z</time>
      </trkpt>
      <trkpt lat="42.8563" lon="-0.29477">
        <ele>2112.7241210938</ele>
        <time>2014-03-12T11:41:12Z</time>
      </trkpt>
      <trkpt lat="42.85643" lon="-0.2947">
        <ele>2114.9030761719</ele>
        <time>2014-03-12T11:41:18Z</time>
      </trkpt>
      <trkpt lat="42.85651" lon="-0.2946">
        <ele>2115.2060546875</ele>
        <time>2014-03-12T11:41:32Z</time>
      </trkpt>
      <trkpt lat="42.85653" lon="-0.29456">
        <ele>2115.1179199219</ele>
        <time>2014-03-12T11:41:54Z</time>
      </trkpt>
      <trkpt lat="42.85626" lon="-0.29532">
        <ele>2112.0690917969</ele>
        <time>2014-03-12T12:09:02Z</time>
      </trkpt>
      <trkpt lat="42.85624" lon="-0.29532">
        <ele>2112.1140136719</ele>
        <time>2014-03-12T12:09:03Z</time>
      </trkpt>
      <trkpt lat="42.85627" lon="-0.29517">
        <ele>2110.6579589844</ele>
        <time>2014-03-12T12:09:17Z</time>
      </trkpt>
      <trkpt lat="42.85627" lon="-0.29502">
        <ele>2111.4609375</ele>
        <time>2014-03-12T12:09:33Z</time>
      </trkpt>
      <trkpt lat="42.85633" lon="-0.29494">
        <ele>2112.2810058594</ele>
        <time>2014-03-12T12:09:45Z</time>
      </trkpt>
      <trkpt lat="42.85643" lon="-0.29485">
        <ele>2112.6440429688</ele>
        <time>2014-03-12T12:10:02Z</time>
      </trkpt>
      <trkpt lat="42.85652" lon="-0.2947">
        <ele>2114.6579589844</ele>
        <time>2014-03-12T12:10:22Z</time>
      </trkpt>
      <trkpt lat="42.85655" lon="-0.29467">
        <ele>2114.4650878906</ele>
        <time>2014-03-12T12:11:04Z</time>
      </trkpt>
      <trkpt lat="42.85666" lon="-0.29466">
        <ele>2115.2729492188</ele>
        <time>2014-03-12T12:11:43Z</time>
      </trkpt>
      <trkpt lat="42.85672" lon="-0.29461">
        <ele>2115.412109375</ele>
        <time>2014-03-12T12:11:52Z</time>
      </trkpt>
      <trkpt lat="42.85683" lon="-0.2944">
        <ele>2115.8420410156</ele>
        <time>2014-03-12T12:12:14Z</time>
      </trkpt>
      <trkpt lat="42.85695" lon="-0.2942">
        <ele>2116.462890625</ele>
        <time>2014-03-12T12:12:38Z</time>
      </trkpt>
      <trkpt lat="42.85703" lon="-0.29403">
        <ele>2117.5749511719</ele>
        <time>2014-03-12T12:12:58Z</time>
      </trkpt>
      <trkpt lat="42.85714" lon="-0.29383">
        <ele>2118.1879882812</ele>
        <time>2014-03-12T12:13:20Z</time>
      </trkpt>
      <trkpt lat="42.8572" lon="-0.29366">
        <ele>2118.8168945312</ele>
        <time>2014-03-12T12:13:39Z</time>
      </trkpt>
      <trkpt lat="42.85729" lon="-0.29353">
        <ele>2119.337890625</ele>
        <time>2014-03-12T12:14:00Z</time>
      </trkpt>
      <trkpt lat="42.85735" lon="-0.2934">
        <ele>2120.3640136719</ele>
        <time>2014-03-12T12:14:16Z</time>
      </trkpt>
      <trkpt lat="42.85745" lon="-0.29327">
        <ele>2122.5859375</ele>
        <time>2014-03-12T12:14:41Z</time>
      </trkpt>
      <trkpt lat="42.85757" lon="-0.29316">
        <ele>2124.9409179688</ele>
        <time>2014-03-12T12:15:06Z</time>
      </trkpt>
      <trkpt lat="42.85766" lon="-0.29294">
        <ele>2127.9609375</ele>
        <time>2014-03-12T12:15:41Z</time>
      </trkpt>
      <trkpt lat="42.85766" lon="-0.29292">
        <ele>2128.5559082031</ele>
        <time>2014-03-12T12:16:22Z</time>
      </trkpt>
      <trkpt lat="42.85769" lon="-0.29282">
        <ele>2130.6779785156</ele>
        <time>2014-03-12T12:18:10Z</time>
      </trkpt>
      <trkpt lat="42.85758" lon="-0.29286">
        <ele>2133.3811035156</ele>
        <time>2014-03-12T12:18:34Z</time>
      </trkpt>
      <trkpt lat="42.85745" lon="-0.29295">
        <ele>2135.462890625</ele>
        <time>2014-03-12T12:18:55Z</time>
      </trkpt>
      <trkpt lat="42.85744" lon="-0.29285">
        <ele>2138.4970703125</ele>
        <time>2014-03-12T12:19:20Z</time>
      </trkpt>
      <trkpt lat="42.85738" lon="-0.29286">
        <ele>2142.0270996094</ele>
        <time>2014-03-12T12:19:50Z</time>
      </trkpt>
      <trkpt lat="42.85726" lon="-0.29289">
        <ele>2145.3840332031</ele>
        <time>2014-03-12T12:20:20Z</time>
      </trkpt>
      <trkpt lat="42.85716" lon="-0.29285">
        <ele>2148.6149902344</ele>
        <time>2014-03-12T12:20:55Z</time>
      </trkpt>
      <trkpt lat="42.85716" lon="-0.29287">
        <ele>2151.3679199219</ele>
        <time>2014-03-12T12:21:25Z</time>
      </trkpt>
      <trkpt lat="42.85704" lon="-0.29293">
        <ele>2153.9409179688</ele>
        <time>2014-03-12T12:21:58Z</time>
      </trkpt>
      <trkpt lat="42.85707" lon="-0.29286">
        <ele>2155.4108886719</ele>
        <time>2014-03-12T12:22:19Z</time>
      </trkpt>
      <trkpt lat="42.85712" lon="-0.29278">
        <ele>2158.2700195312</ele>
        <time>2014-03-12T12:22:44Z</time>
      </trkpt>
      <trkpt lat="42.85722" lon="-0.29263">
        <ele>2160.330078125</ele>
        <time>2014-03-12T12:23:09Z</time>
      </trkpt>
      <trkpt lat="42.8573" lon="-0.29248">
        <ele>2162.5390625</ele>
        <time>2014-03-12T12:23:34Z</time>
      </trkpt>
      <trkpt lat="42.85735" lon="-0.29229">
        <ele>2163.0180664062</ele>
        <time>2014-03-12T12:23:59Z</time>
      </trkpt>
      <trkpt lat="42.85738" lon="-0.29214">
        <ele>2164.4069824219</ele>
        <time>2014-03-12T12:24:22Z</time>
      </trkpt>
      <trkpt lat="42.85731" lon="-0.29193">
        <ele>2165.12890625</ele>
        <time>2014-03-12T12:24:49Z</time>
      </trkpt>
      <trkpt lat="42.85724" lon="-0.29189">
        <ele>2164.6350097656</ele>
        <time>2014-03-12T12:25:15Z</time>
      </trkpt>
      <trkpt lat="42.85724" lon="-0.29186">
        <ele>2163.0180664062</ele>
        <time>2014-03-12T12:30:57Z</time>
      </trkpt>
      <trkpt lat="42.85725" lon="-0.29179">
        <ele>2161.2419433594</ele>
        <time>2014-03-12T12:31:03Z</time>
      </trkpt>
      <trkpt lat="42.85726" lon="-0.29177">
        <ele>2159.4770507812</ele>
        <time>2014-03-12T12:31:19Z</time>
      </trkpt>
      <trkpt lat="42.85725" lon="-0.29175">
        <ele>2158.2790527344</ele>
        <time>2014-03-12T12:31:43Z</time>
      </trkpt>
      <trkpt lat="42.85725" lon="-0.29175">
        <ele>2157.8249511719</ele>
        <time>2014-03-12T12:33:55Z</time>
      </trkpt>
      <trkpt lat="42.85717" lon="-0.29168">
        <ele>2154.6201171875</ele>
        <time>2014-03-12T12:33:59Z</time>
      </trkpt>
      <trkpt lat="42.85713" lon="-0.29166">
        <ele>2154.62109375</ele>
        <time>2014-03-12T12:34:00Z</time>
      </trkpt>
      <trkpt lat="42.85705" lon="-0.29159">
        <ele>2152.501953125</ele>
        <time>2014-03-12T12:34:02Z</time>
      </trkpt>
      <trkpt lat="42.85694" lon="-0.29145">
        <ele>2148.3830566406</ele>
        <time>2014-03-12T12:34:05Z</time>
      </trkpt>
      <trkpt lat="42.85689" lon="-0.29137">
        <ele>2148.0180664062</ele>
        <time>2014-03-12T12:34:13Z</time>
      </trkpt>
      <trkpt lat="42.8569" lon="-0.29137">
        <ele>2148.2600097656</ele>
        <time>2014-03-12T12:34:16Z</time>
      </trkpt>
      <trkpt lat="42.85703" lon="-0.29136">
        <ele>2142.0568847656</ele>
        <time>2014-03-12T12:34:20Z</time>
      </trkpt>
      <trkpt lat="42.85709" lon="-0.29135">
        <ele>2142.0590820312</ele>
        <time>2014-03-12T12:34:21Z</time>
      </trkpt>
      <trkpt lat="42.85718" lon="-0.29133">
        <ele>2140.0390625</ele>
        <time>2014-03-12T12:34:23Z</time>
      </trkpt>
      <trkpt lat="42.85722" lon="-0.29127">
        <ele>2140.3811035156</ele>
        <time>2014-03-12T12:34:27Z</time>
      </trkpt>
      <trkpt lat="42.85714" lon="-0.29124">
        <ele>2137.9350585938</ele>
        <time>2014-03-12T12:34:30Z</time>
      </trkpt>
      <trkpt lat="42.85702" lon="-0.2911">
        <ele>2137.1940917969</ele>
        <time>2014-03-12T12:34:35Z</time>
      </trkpt>
      <trkpt lat="42.85695" lon="-0.29101">
        <ele>2134.5390625</ele>
        <time>2014-03-12T12:34:37Z</time>
      </trkpt>
      <trkpt lat="42.85688" lon="-0.29092">
        <ele>2133.0458984375</ele>
        <time>2014-03-12T12:34:39Z</time>
      </trkpt>
      <trkpt lat="42.85681" lon="-0.29083">
        <ele>2131.0458984375</ele>
        <time>2014-03-12T12:34:42Z</time>
      </trkpt>
      <trkpt lat="42.85678" lon="-0.29081">
        <ele>2130.9929199219</ele>
        <time>2014-03-12T12:34:53Z</time>
      </trkpt>
      <trkpt lat="42.85687" lon="-0.29081">
        <ele>2127.9670410156</ele>
        <time>2014-03-12T12:34:57Z</time>
      </trkpt>
      <trkpt lat="42.85702" lon="-0.29079">
        <ele>2125.5290527344</ele>
        <time>2014-03-12T12:35:00Z</time>
      </trkpt>
      <trkpt lat="42.85708" lon="-0.29077">
        <ele>2123.0300292969</ele>
        <time>2014-03-12T12:35:01Z</time>
      </trkpt>
      <trkpt lat="42.85723" lon="-0.2907">
        <ele>2119.6411132812</ele>
        <time>2014-03-12T12:35:03Z</time>
      </trkpt>
      <trkpt lat="42.8573" lon="-0.29068">
        <ele>2116.3759765625</ele>
        <time>2014-03-12T12:35:04Z</time>
      </trkpt>
      <trkpt lat="42.85743" lon="-0.29066">
        <ele>2117.6669921875</ele>
        <time>2014-03-12T12:35:07Z</time>
      </trkpt>
      <trkpt lat="42.85745" lon="-0.29065">
        <ele>2117.8369140625</ele>
        <time>2014-03-12T12:35:08Z</time>
      </trkpt>
      <trkpt lat="42.85748" lon="-0.29064">
        <ele>2117.4030761719</ele>
        <time>2014-03-12T12:35:10Z</time>
      </trkpt>
      <trkpt lat="42.85741" lon="-0.29053">
        <ele>2114.75390625</ele>
        <time>2014-03-12T12:35:14Z</time>
      </trkpt>
      <trkpt lat="42.85737" lon="-0.29051">
        <ele>2112.6909179688</ele>
        <time>2014-03-12T12:35:15Z</time>
      </trkpt>
      <trkpt lat="42.8573" lon="-0.29047">
        <ele>2112.3679199219</ele>
        <time>2014-03-12T12:35:17Z</time>
      </trkpt>
      <trkpt lat="42.85733" lon="-0.29037">
        <ele>2110.6389160156</ele>
        <time>2014-03-12T12:35:21Z</time>
      </trkpt>
      <trkpt lat="42.8574" lon="-0.29034">
        <ele>2108.7380371094</ele>
        <time>2014-03-12T12:35:23Z</time>
      </trkpt>
      <trkpt lat="42.85748" lon="-0.29032">
        <ele>2104.9030761719</ele>
        <time>2014-03-12T12:35:25Z</time>
      </trkpt>
      <trkpt lat="42.85754" lon="-0.29029">
        <ele>2104.9050292969</ele>
        <time>2014-03-12T12:35:26Z</time>
      </trkpt>
      <trkpt lat="42.8576" lon="-0.29028">
        <ele>2101.6870117188</ele>
        <time>2014-03-12T12:35:27Z</time>
      </trkpt>
      <trkpt lat="42.85768" lon="-0.29025">
        <ele>2101.6889648438</ele>
        <time>2014-03-12T12:35:28Z</time>
      </trkpt>
      <trkpt lat="42.85782" lon="-0.29018">
        <ele>2098.6499023438</ele>
        <time>2014-03-12T12:35:30Z</time>
      </trkpt>
      <trkpt lat="42.85798" lon="-0.29013">
        <ele>2094.375</ele>
        <time>2014-03-12T12:35:32Z</time>
      </trkpt>
      <trkpt lat="42.85805" lon="-0.29011">
        <ele>2094.37890625</ele>
        <time>2014-03-12T12:35:33Z</time>
      </trkpt>
      <trkpt lat="42.85826" lon="-0.28994">
        <ele>2093.0869140625</ele>
        <time>2014-03-12T12:35:41Z</time>
      </trkpt>
      <trkpt lat="42.85827" lon="-0.28995">
        <ele>2092.916015625</ele>
        <time>2014-03-12T12:35:43Z</time>
      </trkpt>
      <trkpt lat="42.85814" lon="-0.28989">
        <ele>2089.1479492188</ele>
        <time>2014-03-12T12:35:47Z</time>
      </trkpt>
      <trkpt lat="42.85802" lon="-0.28988">
        <ele>2086.8269042969</ele>
        <time>2014-03-12T12:35:49Z</time>
      </trkpt>
      <trkpt lat="42.85786" lon="-0.28989">
        <ele>2087.5400390625</ele>
        <time>2014-03-12T12:35:56Z</time>
      </trkpt>
      <trkpt lat="42.85786" lon="-0.28988">
        <ele>2087.2060546875</ele>
        <time>2014-03-12T12:35:58Z</time>
      </trkpt>
      <trkpt lat="42.85793" lon="-0.28978">
        <ele>2083.3569335938</ele>
        <time>2014-03-12T12:36:02Z</time>
      </trkpt>
      <trkpt lat="42.85791" lon="-0.28969">
        <ele>2081.6918945312</ele>
        <time>2014-03-12T12:36:05Z</time>
      </trkpt>
      <trkpt lat="42.85791" lon="-0.2896">
        <ele>2078.9851074219</ele>
        <time>2014-03-12T12:36:07Z</time>
      </trkpt>
      <trkpt lat="42.85799" lon="-0.28931">
        <ele>2075.6918945312</ele>
        <time>2014-03-12T12:36:12Z</time>
      </trkpt>
      <trkpt lat="42.85801" lon="-0.2892">
        <ele>2070.3229980469</ele>
        <time>2014-03-12T12:36:14Z</time>
      </trkpt>
      <trkpt lat="42.85804" lon="-0.28906">
        <ele>2066.0949707031</ele>
        <time>2014-03-12T12:36:16Z</time>
      </trkpt>
      <trkpt lat="42.85807" lon="-0.289">
        <ele>2066.0949707031</ele>
        <time>2014-03-12T12:36:17Z</time>
      </trkpt>
      <trkpt lat="42.8581" lon="-0.28895">
        <ele>2065.3081054688</ele>
        <time>2014-03-12T12:36:23Z</time>
      </trkpt>
      <trkpt lat="42.8581" lon="-0.28894">
        <ele>2065.5559082031</ele>
        <time>2014-03-12T12:36:26Z</time>
      </trkpt>
      <trkpt lat="42.85806" lon="-0.28882">
        <ele>2063.58203125</ele>
        <time>2014-03-12T12:36:31Z</time>
      </trkpt>
      <trkpt lat="42.8581" lon="-0.28873">
        <ele>2062.3559570312</ele>
        <time>2014-03-12T12:36:41Z</time>
      </trkpt>
      <trkpt lat="42.85811" lon="-0.28863">
        <ele>2063.2390136719</ele>
        <time>2014-03-12T13:26:35Z</time>
      </trkpt>
      <trkpt lat="42.85811" lon="-0.28863">
        <ele>2063.2390136719</ele>
        <time>2014-03-12T13:26:36Z</time>
      </trkpt>
      <trkpt lat="42.85807" lon="-0.28869">
        <ele>2063.3979492188</ele>
        <time>2014-03-12T13:27:18Z</time>
      </trkpt>
      <trkpt lat="42.85807" lon="-0.28871">
        <ele>2066.4489746094</ele>
        <time>2014-03-12T13:27:30Z</time>
      </trkpt>
      <trkpt lat="42.85806" lon="-0.28873">
        <ele>2069.0258789062</ele>
        <time>2014-03-12T13:27:43Z</time>
      </trkpt>
      <trkpt lat="42.85794" lon="-0.2887">
        <ele>2067.5959472656</ele>
        <time>2014-03-12T13:27:48Z</time>
      </trkpt>
      <trkpt lat="42.85787" lon="-0.28863">
        <ele>2065.666015625</ele>
        <time>2014-03-12T13:27:50Z</time>
      </trkpt>
      <trkpt lat="42.85784" lon="-0.28857">
        <ele>2062.2429199219</ele>
        <time>2014-03-12T13:27:51Z</time>
      </trkpt>
      <trkpt lat="42.8578" lon="-0.28851">
        <ele>2062.4060058594</ele>
        <time>2014-03-12T13:27:52Z</time>
      </trkpt>
      <trkpt lat="42.85778" lon="-0.28844">
        <ele>2059.1259765625</ele>
        <time>2014-03-12T13:27:53Z</time>
      </trkpt>
      <trkpt lat="42.85775" lon="-0.28837">
        <ele>2059.3259277344</ele>
        <time>2014-03-12T13:27:54Z</time>
      </trkpt>
      <trkpt lat="42.8577" lon="-0.28824">
        <ele>2055.0500488281</ele>
        <time>2014-03-12T13:27:56Z</time>
      </trkpt>
      <trkpt lat="42.85769" lon="-0.28819">
        <ele>2055.3059082031</ele>
        <time>2014-03-12T13:27:57Z</time>
      </trkpt>
      <trkpt lat="42.85765" lon="-0.28811">
        <ele>2056.9829101562</ele>
        <time>2014-03-12T13:28:01Z</time>
      </trkpt>
      <trkpt lat="42.85754" lon="-0.28789">
        <ele>2057.3601074219</ele>
        <time>2014-03-12T13:28:20Z</time>
      </trkpt>
      <trkpt lat="42.85741" lon="-0.28759">
        <ele>2057.662109375</ele>
        <time>2014-03-12T13:28:49Z</time>
      </trkpt>
      <trkpt lat="42.85731" lon="-0.28738">
        <ele>2058.9641113281</ele>
        <time>2014-03-12T13:29:09Z</time>
      </trkpt>
      <trkpt lat="42.85722" lon="-0.28718">
        <ele>2058.962890625</ele>
        <time>2014-03-12T13:29:31Z</time>
      </trkpt>
      <trkpt lat="42.85718" lon="-0.28709">
        <ele>2059.0380859375</ele>
        <time>2014-03-12T13:29:47Z</time>
      </trkpt>
      <trkpt lat="42.85712" lon="-0.28696">
        <ele>2059.0209960938</ele>
        <time>2014-03-12T13:30:39Z</time>
      </trkpt>
      <trkpt lat="42.85702" lon="-0.2867">
        <ele>2060.7639160156</ele>
        <time>2014-03-12T13:31:04Z</time>
      </trkpt>
      <trkpt lat="42.85699" lon="-0.28655">
        <ele>2061.1220703125</ele>
        <time>2014-03-12T13:31:18Z</time>
      </trkpt>
      <trkpt lat="42.85685" lon="-0.2863">
        <ele>2063.5419921875</ele>
        <time>2014-03-12T13:31:43Z</time>
      </trkpt>
      <trkpt lat="42.85679" lon="-0.28607">
        <ele>2066.6789550781</ele>
        <time>2014-03-12T13:32:08Z</time>
      </trkpt>
      <trkpt lat="42.85672" lon="-0.2859">
        <ele>2068.5930175781</ele>
        <time>2014-03-12T13:32:24Z</time>
      </trkpt>
      <trkpt lat="42.85665" lon="-0.28568">
        <ele>2070.2219238281</ele>
        <time>2014-03-12T13:32:45Z</time>
      </trkpt>
      <trkpt lat="42.85654" lon="-0.28548">
        <ele>2073.6149902344</ele>
        <time>2014-03-12T13:33:09Z</time>
      </trkpt>
      <trkpt lat="42.85645" lon="-0.28538">
        <ele>2075.9379882812</ele>
        <time>2014-03-12T13:33:31Z</time>
      </trkpt>
      <trkpt lat="42.85635" lon="-0.28533">
        <ele>2079.0910644531</ele>
        <time>2014-03-12T13:33:46Z</time>
      </trkpt>
      <trkpt lat="42.85626" lon="-0.28528">
        <ele>2082.2939453125</ele>
        <time>2014-03-12T13:34:04Z</time>
      </trkpt>
      <trkpt lat="42.85616" lon="-0.28525">
        <ele>2085.4069824219</ele>
        <time>2014-03-12T13:34:22Z</time>
      </trkpt>
      <trkpt lat="42.85623" lon="-0.28513">
        <ele>2087.8259277344</ele>
        <time>2014-03-12T13:34:46Z</time>
      </trkpt>
      <trkpt lat="42.85627" lon="-0.28505">
        <ele>2091.2041015625</ele>
        <time>2014-03-12T13:36:54Z</time>
      </trkpt>
      <trkpt lat="42.85631" lon="-0.28495">
        <ele>2094.3620605469</ele>
        <time>2014-03-12T13:37:10Z</time>
      </trkpt>
      <trkpt lat="42.85625" lon="-0.28494">
        <ele>2096.9750976562</ele>
        <time>2014-03-12T13:37:29Z</time>
      </trkpt>
      <trkpt lat="42.85615" lon="-0.28495">
        <ele>2100.0190429688</ele>
        <time>2014-03-12T13:37:45Z</time>
      </trkpt>
      <trkpt lat="42.85617" lon="-0.2849">
        <ele>2101.9641113281</ele>
        <time>2014-03-12T13:38:00Z</time>
      </trkpt>
      <trkpt lat="42.85621" lon="-0.28482">
        <ele>2105.1560058594</ele>
        <time>2014-03-12T13:38:14Z</time>
      </trkpt>
      <trkpt lat="42.85622" lon="-0.28472">
        <ele>2107.7561035156</ele>
        <time>2014-03-12T13:38:33Z</time>
      </trkpt>
      <trkpt lat="42.85613" lon="-0.28476">
        <ele>2110.4079589844</ele>
        <time>2014-03-12T13:38:48Z</time>
      </trkpt>
      <trkpt lat="42.85601" lon="-0.28478">
        <ele>2113.9670410156</ele>
        <time>2014-03-12T13:39:05Z</time>
      </trkpt>
      <trkpt lat="42.85598" lon="-0.28473">
        <ele>2117.0349121094</ele>
        <time>2014-03-12T13:39:24Z</time>
      </trkpt>
      <trkpt lat="42.85604" lon="-0.28459">
        <ele>2120.2250976562</ele>
        <time>2014-03-12T13:39:40Z</time>
      </trkpt>
      <trkpt lat="42.85606" lon="-0.28445">
        <ele>2123.5190429688</ele>
        <time>2014-03-12T13:39:56Z</time>
      </trkpt>
      <trkpt lat="42.85595" lon="-0.28435">
        <ele>2126.5690917969</ele>
        <time>2014-03-12T13:40:12Z</time>
      </trkpt>
      <trkpt lat="42.85584" lon="-0.28424">
        <ele>2129.212890625</ele>
        <time>2014-03-12T13:40:30Z</time>
      </trkpt>
      <trkpt lat="42.85583" lon="-0.28423">
        <ele>2128.8439941406</ele>
        <time>2014-03-12T13:40:31Z</time>
      </trkpt>
      <trkpt lat="42.85575" lon="-0.28412">
        <ele>2132.1379394531</ele>
        <time>2014-03-12T13:40:48Z</time>
      </trkpt>
      <trkpt lat="42.85564" lon="-0.28394">
        <ele>2135.62109375</ele>
        <time>2014-03-12T13:41:10Z</time>
      </trkpt>
      <trkpt lat="42.85556" lon="-0.28383">
        <ele>2138.6770019531</ele>
        <time>2014-03-12T13:41:25Z</time>
      </trkpt>
      <trkpt lat="42.85546" lon="-0.28375">
        <ele>2141.8811035156</ele>
        <time>2014-03-12T13:41:43Z</time>
      </trkpt>
      <trkpt lat="42.85534" lon="-0.28365">
        <ele>2144.9189453125</ele>
        <time>2014-03-12T13:42:04Z</time>
      </trkpt>
      <trkpt lat="42.85522" lon="-0.28355">
        <ele>2147.4270019531</ele>
        <time>2014-03-12T13:42:29Z</time>
      </trkpt>
      <trkpt lat="42.85533" lon="-0.28343">
        <ele>2149.5209960938</ele>
        <time>2014-03-12T13:42:47Z</time>
      </trkpt>
      <trkpt lat="42.85541" lon="-0.28335">
        <ele>2151.3869628906</ele>
        <time>2014-03-12T13:43:10Z</time>
      </trkpt>
      <trkpt lat="42.8555" lon="-0.28328">
        <ele>2153.45703125</ele>
        <time>2014-03-12T13:43:57Z</time>
      </trkpt>
      <trkpt lat="42.85558" lon="-0.2832">
        <ele>2156.8940429688</ele>
        <time>2014-03-12T13:44:14Z</time>
      </trkpt>
      <trkpt lat="42.8555" lon="-0.28316">
        <ele>2158.3989257812</ele>
        <time>2014-03-12T13:44:28Z</time>
      </trkpt>
      <trkpt lat="42.85537" lon="-0.28312">
        <ele>2161.5900878906</ele>
        <time>2014-03-12T13:44:46Z</time>
      </trkpt>
      <trkpt lat="42.85535" lon="-0.28305">
        <ele>2163.9699707031</ele>
        <time>2014-03-12T13:45:01Z</time>
      </trkpt>
      <trkpt lat="42.85547" lon="-0.28296">
        <ele>2167.1079101562</ele>
        <time>2014-03-12T13:45:21Z</time>
      </trkpt>
      <trkpt lat="42.85555" lon="-0.28292">
        <ele>2168.7661132812</ele>
        <time>2014-03-12T13:45:38Z</time>
      </trkpt>
      <trkpt lat="42.85551" lon="-0.28285">
        <ele>2171.2858886719</ele>
        <time>2014-03-12T13:45:55Z</time>
      </trkpt>
      <trkpt lat="42.85543" lon="-0.28282">
        <ele>2173.2890625</ele>
        <time>2014-03-12T13:46:14Z</time>
      </trkpt>
      <trkpt lat="42.85551" lon="-0.28277">
        <ele>2175.0458984375</ele>
        <time>2014-03-12T13:46:30Z</time>
      </trkpt>
      <trkpt lat="42.85563" lon="-0.28271">
        <ele>2178.1311035156</ele>
        <time>2014-03-12T13:46:53Z</time>
      </trkpt>
      <trkpt lat="42.85569" lon="-0.28268">
        <ele>2180.1398925781</ele>
        <time>2014-03-12T13:47:07Z</time>
      </trkpt>
      <trkpt lat="42.85577" lon="-0.28253">
        <ele>2183.2900390625</ele>
        <time>2014-03-12T13:47:32Z</time>
      </trkpt>
      <trkpt lat="42.85582" lon="-0.28238">
        <ele>2186.3500976562</ele>
        <time>2014-03-12T13:47:56Z</time>
      </trkpt>
      <trkpt lat="42.85581" lon="-0.28233">
        <ele>2186.9609375</ele>
        <time>2014-03-12T13:48:11Z</time>
      </trkpt>
      <trkpt lat="42.85567" lon="-0.28223">
        <ele>2188.5930175781</ele>
        <time>2014-03-12T13:48:35Z</time>
      </trkpt>
      <trkpt lat="42.85564" lon="-0.28221">
        <ele>2188.8129882812</ele>
        <time>2014-03-12T13:49:07Z</time>
      </trkpt>
      <trkpt lat="42.85555" lon="-0.28229">
        <ele>2192.3420410156</ele>
        <time>2014-03-12T13:49:24Z</time>
      </trkpt>
      <trkpt lat="42.85554" lon="-0.28229">
        <ele>2190.25390625</ele>
        <time>2014-03-12T13:50:46Z</time>
      </trkpt>
      <trkpt lat="42.85553" lon="-0.28222">
        <ele>2192.1040039062</ele>
        <time>2014-03-12T13:51:05Z</time>
      </trkpt>
      <trkpt lat="42.85559" lon="-0.28205">
        <ele>2194.6379394531</ele>
        <time>2014-03-12T13:51:23Z</time>
      </trkpt>
      <trkpt lat="42.8555" lon="-0.28211">
        <ele>2196.3491210938</ele>
        <time>2014-03-12T13:51:36Z</time>
      </trkpt>
      <trkpt lat="42.85544" lon="-0.28216">
        <ele>2199.2780761719</ele>
        <time>2014-03-12T13:51:54Z</time>
      </trkpt>
      <trkpt lat="42.85554" lon="-0.28207">
        <ele>2201.8820800781</ele>
        <time>2014-03-12T13:52:13Z</time>
      </trkpt>
      <trkpt lat="42.85548" lon="-0.28205">
        <ele>2203.9309082031</ele>
        <time>2014-03-12T13:52:30Z</time>
      </trkpt>
      <trkpt lat="42.85553" lon="-0.28201">
        <ele>2206.12890625</ele>
        <time>2014-03-12T13:52:39Z</time>
      </trkpt>
      <trkpt lat="42.85541" lon="-0.28202">
        <ele>2207.7019042969</ele>
        <time>2014-03-12T13:52:56Z</time>
      </trkpt>
      <trkpt lat="42.85531" lon="-0.28213">
        <ele>2210.958984375</ele>
        <time>2014-03-12T13:53:14Z</time>
      </trkpt>
      <trkpt lat="42.85522" lon="-0.28215">
        <ele>2213.7451171875</ele>
        <time>2014-03-12T13:53:29Z</time>
      </trkpt>
      <trkpt lat="42.85525" lon="-0.28209">
        <ele>2215.3859863281</ele>
        <time>2014-03-12T13:53:45Z</time>
      </trkpt>
      <trkpt lat="42.85528" lon="-0.28206">
        <ele>2216.8540039062</ele>
        <time>2014-03-12T13:53:52Z</time>
      </trkpt>
      <trkpt lat="42.85527" lon="-0.282">
        <ele>2217.9909667969</ele>
        <time>2014-03-12T13:54:06Z</time>
      </trkpt>
      <trkpt lat="42.85517" lon="-0.28205">
        <ele>2221.2299804688</ele>
        <time>2014-03-12T13:54:22Z</time>
      </trkpt>
      <trkpt lat="42.85521" lon="-0.28198">
        <ele>2222.8520507812</ele>
        <time>2014-03-12T13:54:42Z</time>
      </trkpt>
      <trkpt lat="42.85524" lon="-0.28188">
        <ele>2225.5520019531</ele>
        <time>2014-03-12T13:54:57Z</time>
      </trkpt>
      <trkpt lat="42.85519" lon="-0.28191">
        <ele>2226.3369140625</ele>
        <time>2014-03-12T13:55:07Z</time>
      </trkpt>
      <trkpt lat="42.85509" lon="-0.28196">
        <ele>2229.6411132812</ele>
        <time>2014-03-12T13:55:24Z</time>
      </trkpt>
      <trkpt lat="42.85511" lon="-0.28189">
        <ele>2231.5969238281</ele>
        <time>2014-03-12T13:55:36Z</time>
      </trkpt>
      <trkpt lat="42.85512" lon="-0.28176">
        <ele>2233.9318847656</ele>
        <time>2014-03-12T13:55:52Z</time>
      </trkpt>
      <trkpt lat="42.85515" lon="-0.28166">
        <ele>2235.24609375</ele>
        <time>2014-03-12T13:56:07Z</time>
      </trkpt>
      <trkpt lat="42.85517" lon="-0.28161">
        <ele>2236.4230957031</ele>
        <time>2014-03-12T13:56:20Z</time>
      </trkpt>
      <trkpt lat="42.85507" lon="-0.28167">
        <ele>2238.166015625</ele>
        <time>2014-03-12T13:56:37Z</time>
      </trkpt>
      <trkpt lat="42.85501" lon="-0.28173">
        <ele>2240.587890625</ele>
        <time>2014-03-12T13:57:05Z</time>
      </trkpt>
      <trkpt lat="42.855" lon="-0.28159">
        <ele>2243.1340332031</ele>
        <time>2014-03-12T13:57:24Z</time>
      </trkpt>
      <trkpt lat="42.85505" lon="-0.28144">
        <ele>2244.6179199219</ele>
        <time>2014-03-12T13:57:47Z</time>
      </trkpt>
      <trkpt lat="42.85499" lon="-0.28148">
        <ele>2246.2819824219</ele>
        <time>2014-03-12T13:57:59Z</time>
      </trkpt>
      <trkpt lat="42.85491" lon="-0.28149">
        <ele>2248.1630859375</ele>
        <time>2014-03-12T13:58:18Z</time>
      </trkpt>
      <trkpt lat="42.85482" lon="-0.28154">
        <ele>2250.5690917969</ele>
        <time>2014-03-12T13:58:45Z</time>
      </trkpt>
      <trkpt lat="42.85473" lon="-0.28162">
        <ele>2251.9938964844</ele>
        <time>2014-03-12T13:59:01Z</time>
      </trkpt>
      <trkpt lat="42.8547" lon="-0.28161">
        <ele>2253.0471191406</ele>
        <time>2014-03-12T13:59:19Z</time>
      </trkpt>
      <trkpt lat="42.85464" lon="-0.28143">
        <ele>2255.8620605469</ele>
        <time>2014-03-12T13:59:38Z</time>
      </trkpt>
      <trkpt lat="42.85463" lon="-0.28127">
        <ele>2257.8930664062</ele>
        <time>2014-03-12T13:59:55Z</time>
      </trkpt>
      <trkpt lat="42.85457" lon="-0.28117">
        <ele>2259.2338867188</ele>
        <time>2014-03-12T14:00:10Z</time>
      </trkpt>
      <trkpt lat="42.85454" lon="-0.28123">
        <ele>2261.9089355469</ele>
        <time>2014-03-12T14:00:30Z</time>
      </trkpt>
      <trkpt lat="42.85438" lon="-0.28125">
        <ele>2264.2141113281</ele>
        <time>2014-03-12T14:00:54Z</time>
      </trkpt>
      <trkpt lat="42.8543" lon="-0.28123">
        <ele>2262.8500976562</ele>
        <time>2014-03-12T14:01:37Z</time>
      </trkpt>
      <trkpt lat="42.85426" lon="-0.28132">
        <ele>2264.9770507812</ele>
        <time>2014-03-12T14:02:21Z</time>
      </trkpt>
      <trkpt lat="42.85416" lon="-0.28138">
        <ele>2268.2709960938</ele>
        <time>2014-03-12T14:02:39Z</time>
      </trkpt>
      <trkpt lat="42.85411" lon="-0.28139">
        <ele>2271.375</ele>
        <time>2014-03-12T14:02:58Z</time>
      </trkpt>
      <trkpt lat="42.85405" lon="-0.28123">
        <ele>2274.4479980469</ele>
        <time>2014-03-12T14:03:16Z</time>
      </trkpt>
      <trkpt lat="42.85398" lon="-0.2811">
        <ele>2277.8190917969</ele>
        <time>2014-03-12T14:03:35Z</time>
      </trkpt>
      <trkpt lat="42.85394" lon="-0.28089">
        <ele>2280.9499511719</ele>
        <time>2014-03-12T14:03:56Z</time>
      </trkpt>
      <trkpt lat="42.85388" lon="-0.28092">
        <ele>2284.1879882812</ele>
        <time>2014-03-12T14:04:12Z</time>
      </trkpt>
      <trkpt lat="42.85382" lon="-0.28105">
        <ele>2287.7819824219</ele>
        <time>2014-03-12T14:04:30Z</time>
      </trkpt>
      <trkpt lat="42.85374" lon="-0.28118">
        <ele>2291.3391113281</ele>
        <time>2014-03-12T14:04:47Z</time>
      </trkpt>
      <trkpt lat="42.85364" lon="-0.28121">
        <ele>2294.5600585938</ele>
        <time>2014-03-12T14:05:05Z</time>
      </trkpt>
      <trkpt lat="42.85354" lon="-0.28125">
        <ele>2297.7028808594</ele>
        <time>2014-03-12T14:05:19Z</time>
      </trkpt>
      <trkpt lat="42.85344" lon="-0.28131">
        <ele>2300.7299804688</ele>
        <time>2014-03-12T14:05:37Z</time>
      </trkpt>
      <trkpt lat="42.8534" lon="-0.28129">
        <ele>2302.8840332031</ele>
        <time>2014-03-12T14:05:52Z</time>
      </trkpt>
      <trkpt lat="42.85342" lon="-0.28115">
        <ele>2305.712890625</ele>
        <time>2014-03-12T14:06:10Z</time>
      </trkpt>
      <trkpt lat="42.85339" lon="-0.28103">
        <ele>2308.1499023438</ele>
        <time>2014-03-12T14:06:28Z</time>
      </trkpt>
      <trkpt lat="42.85335" lon="-0.28093">
        <ele>2311.208984375</ele>
        <time>2014-03-12T14:06:47Z</time>
      </trkpt>
      <trkpt lat="42.8533" lon="-0.28081">
        <ele>2314.0439453125</ele>
        <time>2014-03-12T14:07:10Z</time>
      </trkpt>
      <trkpt lat="42.85324" lon="-0.28072">
        <ele>2317.4208984375</ele>
        <time>2014-03-12T14:07:26Z</time>
      </trkpt>
      <trkpt lat="42.85318" lon="-0.28064">
        <ele>2320.5749511719</ele>
        <time>2014-03-12T14:07:41Z</time>
      </trkpt>
      <trkpt lat="42.85308" lon="-0.28069">
        <ele>2324.0209960938</ele>
        <time>2014-03-12T14:07:57Z</time>
      </trkpt>
      <trkpt lat="42.85302" lon="-0.28081">
        <ele>2327.1508789062</ele>
        <time>2014-03-12T14:08:13Z</time>
      </trkpt>
      <trkpt lat="42.85296" lon="-0.2808">
        <ele>2329.8029785156</ele>
        <time>2014-03-12T14:08:29Z</time>
      </trkpt>
      <trkpt lat="42.85289" lon="-0.28071">
        <ele>2332.3120117188</ele>
        <time>2014-03-12T14:08:46Z</time>
      </trkpt>
      <trkpt lat="42.8528" lon="-0.28069">
        <ele>2335.4418945312</ele>
        <time>2014-03-12T14:09:01Z</time>
      </trkpt>
      <trkpt lat="42.85279" lon="-0.28073">
        <ele>2336.0300292969</ele>
        <time>2014-03-12T14:09:18Z</time>
      </trkpt>
      <trkpt lat="42.85277" lon="-0.28084">
        <ele>2339.0390625</ele>
        <time>2014-03-12T14:10:39Z</time>
      </trkpt>
      <trkpt lat="42.85271" lon="-0.28076">
        <ele>2340.7648925781</ele>
        <time>2014-03-12T14:10:56Z</time>
      </trkpt>
      <trkpt lat="42.85271" lon="-0.28075">
        <ele>2340.4250488281</ele>
        <time>2014-03-12T14:11:12Z</time>
      </trkpt>
      <trkpt lat="42.8527" lon="-0.28074">
        <ele>2342.4350585938</ele>
        <time>2014-03-12T14:12:52Z</time>
      </trkpt>
      <trkpt lat="42.85278" lon="-0.28089">
        <ele>2345.2719726562</ele>
        <time>2014-03-12T14:18:05Z</time>
      </trkpt>
      <trkpt lat="42.85272" lon="-0.281">
        <ele>2346.748046875</ele>
        <time>2014-03-12T14:18:28Z</time>
      </trkpt>
      <trkpt lat="42.85265" lon="-0.28102">
        <ele>2349.7980957031</ele>
        <time>2014-03-12T14:18:48Z</time>
      </trkpt>
      <trkpt lat="42.85265" lon="-0.28102">
        <ele>2349.8100585938</ele>
        <time>2014-03-12T14:18:49Z</time>
      </trkpt>
      <trkpt lat="42.85253" lon="-0.28107">
        <ele>2352.8278808594</ele>
        <time>2014-03-12T14:19:09Z</time>
      </trkpt>
      <trkpt lat="42.85244" lon="-0.28112">
        <ele>2355.8920898438</ele>
        <time>2014-03-12T14:19:29Z</time>
      </trkpt>
      <trkpt lat="42.85234" lon="-0.28115">
        <ele>2359.0300292969</ele>
        <time>2014-03-12T14:19:53Z</time>
      </trkpt>
      <trkpt lat="42.85234" lon="-0.28096">
        <ele>2362.2900390625</ele>
        <time>2014-03-12T14:20:16Z</time>
      </trkpt>
      <trkpt lat="42.85232" lon="-0.28081">
        <ele>2365.5891113281</ele>
        <time>2014-03-12T14:20:37Z</time>
      </trkpt>
      <trkpt lat="42.85228" lon="-0.28069">
        <ele>2369.0681152344</ele>
        <time>2014-03-12T14:21:00Z</time>
      </trkpt>
      <trkpt lat="42.85224" lon="-0.28081">
        <ele>2371.2080078125</ele>
        <time>2014-03-12T14:21:19Z</time>
      </trkpt>
      <trkpt lat="42.85212" lon="-0.28092">
        <ele>2374.8601074219</ele>
        <time>2014-03-12T14:21:41Z</time>
      </trkpt>
      <trkpt lat="42.85201" lon="-0.28103">
        <ele>2378.1000976562</ele>
        <time>2014-03-12T14:22:07Z</time>
      </trkpt>
      <trkpt lat="42.85198" lon="-0.2809">
        <ele>2380.9799804688</ele>
        <time>2014-03-12T14:22:28Z</time>
      </trkpt>
      <trkpt lat="42.85197" lon="-0.28072">
        <ele>2384.1960449219</ele>
        <time>2014-03-12T14:22:49Z</time>
      </trkpt>
      <trkpt lat="42.85194" lon="-0.28063">
        <ele>2387.7250976562</ele>
        <time>2014-03-12T14:23:16Z</time>
      </trkpt>
      <trkpt lat="42.85185" lon="-0.28073">
        <ele>2390.7709960938</ele>
        <time>2014-03-12T14:23:37Z</time>
      </trkpt>
      <trkpt lat="42.85175" lon="-0.28078">
        <ele>2394.2338867188</ele>
        <time>2014-03-12T14:24:00Z</time>
      </trkpt>
      <trkpt lat="42.85163" lon="-0.2809">
        <ele>2397.8391113281</ele>
        <time>2014-03-12T14:24:25Z</time>
      </trkpt>
      <trkpt lat="42.85153" lon="-0.28103">
        <ele>2400.9389648438</ele>
        <time>2014-03-12T14:24:47Z</time>
      </trkpt>
      <trkpt lat="42.85144" lon="-0.2811">
        <ele>2404.0161132812</ele>
        <time>2014-03-12T14:25:07Z</time>
      </trkpt>
      <trkpt lat="42.85133" lon="-0.28118">
        <ele>2407.2548828125</ele>
        <time>2014-03-12T14:25:30Z</time>
      </trkpt>
      <trkpt lat="42.85121" lon="-0.28125">
        <ele>2410.3889160156</ele>
        <time>2014-03-12T14:25:53Z</time>
      </trkpt>
      <trkpt lat="42.85109" lon="-0.28132">
        <ele>2413.4440917969</ele>
        <time>2014-03-12T14:26:15Z</time>
      </trkpt>
      <trkpt lat="42.85095" lon="-0.28141">
        <ele>2416.5949707031</ele>
        <time>2014-03-12T14:26:42Z</time>
      </trkpt>
      <trkpt lat="42.85083" lon="-0.28149">
        <ele>2419.6789550781</ele>
        <time>2014-03-12T14:27:05Z</time>
      </trkpt>
      <trkpt lat="42.85075" lon="-0.28152">
        <ele>2422.7670898438</ele>
        <time>2014-03-12T14:27:22Z</time>
      </trkpt>
      <trkpt lat="42.85063" lon="-0.28159">
        <ele>2425.8679199219</ele>
        <time>2014-03-12T14:27:49Z</time>
      </trkpt>
      <trkpt lat="42.85052" lon="-0.28169">
        <ele>2429.1669921875</ele>
        <time>2014-03-12T14:28:10Z</time>
      </trkpt>
      <trkpt lat="42.85042" lon="-0.28178">
        <ele>2432.2219238281</ele>
        <time>2014-03-12T14:28:33Z</time>
      </trkpt>
      <trkpt lat="42.85032" lon="-0.28189">
        <ele>2435.3010253906</ele>
        <time>2014-03-12T14:28:59Z</time>
      </trkpt>
      <trkpt lat="42.85025" lon="-0.28198">
        <ele>2438.5090332031</ele>
        <time>2014-03-12T14:29:17Z</time>
      </trkpt>
      <trkpt lat="42.85017" lon="-0.2821">
        <ele>2441.5681152344</ele>
        <time>2014-03-12T14:29:38Z</time>
      </trkpt>
      <trkpt lat="42.85007" lon="-0.28218">
        <ele>2444.7958984375</ele>
        <time>2014-03-12T14:30:02Z</time>
      </trkpt>
      <trkpt lat="42.84998" lon="-0.28228">
        <ele>2448.2670898438</ele>
        <time>2014-03-12T14:30:27Z</time>
      </trkpt>
      <trkpt lat="42.84987" lon="-0.28237">
        <ele>2451.5290527344</ele>
        <time>2014-03-12T14:30:50Z</time>
      </trkpt>
      <trkpt lat="42.84978" lon="-0.28243">
        <ele>2454.6240234375</ele>
        <time>2014-03-12T14:31:11Z</time>
      </trkpt>
      <trkpt lat="42.8497" lon="-0.28241">
        <ele>2457.7770996094</ele>
        <time>2014-03-12T14:31:30Z</time>
      </trkpt>
      <trkpt lat="42.84968" lon="-0.28228">
        <ele>2460.8330078125</ele>
        <time>2014-03-12T14:31:55Z</time>
      </trkpt>
      <trkpt lat="42.84967" lon="-0.28219">
        <ele>2463.9350585938</ele>
        <time>2014-03-12T14:33:04Z</time>
      </trkpt>
      <trkpt lat="42.84966" lon="-0.28218">
        <ele>2464.3159179688</ele>
        <time>2014-03-12T14:33:05Z</time>
      </trkpt>
      <trkpt lat="42.84962" lon="-0.28204">
        <ele>2467.4660644531</ele>
        <time>2014-03-12T14:33:20Z</time>
      </trkpt>
      <trkpt lat="42.84957" lon="-0.28191">
        <ele>2471.044921875</ele>
        <time>2014-03-12T14:33:37Z</time>
      </trkpt>
      <trkpt lat="42.8495" lon="-0.28183">
        <ele>2474.2700195312</ele>
        <time>2014-03-12T14:33:57Z</time>
      </trkpt>
      <trkpt lat="42.84942" lon="-0.28191">
        <ele>2477.541015625</ele>
        <time>2014-03-12T14:34:12Z</time>
      </trkpt>
      <trkpt lat="42.84932" lon="-0.28199">
        <ele>2480.5549316406</ele>
        <time>2014-03-12T14:34:30Z</time>
      </trkpt>
      <trkpt lat="42.8492" lon="-0.2821">
        <ele>2483.8029785156</ele>
        <time>2014-03-12T14:34:49Z</time>
      </trkpt>
      <trkpt lat="42.84917" lon="-0.282">
        <ele>2486.1530761719</ele>
        <time>2014-03-12T14:35:03Z</time>
      </trkpt>
      <trkpt lat="42.84915" lon="-0.28185">
        <ele>2489.2241210938</ele>
        <time>2014-03-12T14:35:23Z</time>
      </trkpt>
      <trkpt lat="42.84914" lon="-0.28181">
        <ele>2490.1120605469</ele>
        <time>2014-03-12T14:35:49Z</time>
      </trkpt>
      <trkpt lat="42.84903" lon="-0.28185">
        <ele>2493.4880371094</ele>
        <time>2014-03-12T14:36:30Z</time>
      </trkpt>
      <trkpt lat="42.84891" lon="-0.28185">
        <ele>2496.5161132812</ele>
        <time>2014-03-12T14:36:49Z</time>
      </trkpt>
      <trkpt lat="42.84881" lon="-0.28188">
        <ele>2499.6550292969</ele>
        <time>2014-03-12T14:37:03Z</time>
      </trkpt>
      <trkpt lat="42.84875" lon="-0.28181">
        <ele>2503.2639160156</ele>
        <time>2014-03-12T14:37:19Z</time>
      </trkpt>
      <trkpt lat="42.84874" lon="-0.28164">
        <ele>2506.0859375</ele>
        <time>2014-03-12T14:37:41Z</time>
      </trkpt>
      <trkpt lat="42.84872" lon="-0.28167">
        <ele>2507.2429199219</ele>
        <time>2014-03-12T14:37:45Z</time>
      </trkpt>
      <trkpt lat="42.84861" lon="-0.28176">
        <ele>2510.3120117188</ele>
        <time>2014-03-12T14:38:03Z</time>
      </trkpt>
      <trkpt lat="42.8485" lon="-0.28186">
        <ele>2513.5710449219</ele>
        <time>2014-03-12T14:38:22Z</time>
      </trkpt>
      <trkpt lat="42.84843" lon="-0.28201">
        <ele>2516.7019042969</ele>
        <time>2014-03-12T14:38:40Z</time>
      </trkpt>
      <trkpt lat="42.84835" lon="-0.2821">
        <ele>2520.0280761719</ele>
        <time>2014-03-12T14:38:57Z</time>
      </trkpt>
      <trkpt lat="42.84823" lon="-0.28221">
        <ele>2523.2360839844</ele>
        <time>2014-03-12T14:39:22Z</time>
      </trkpt>
      <trkpt lat="42.84813" lon="-0.28229">
        <ele>2526.4499511719</ele>
        <time>2014-03-12T14:39:45Z</time>
      </trkpt>
      <trkpt lat="42.84807" lon="-0.28238">
        <ele>2528.2639160156</ele>
        <time>2014-03-12T14:40:03Z</time>
      </trkpt>
      <trkpt lat="42.84799" lon="-0.28248">
        <ele>2530.3930664062</ele>
        <time>2014-03-12T14:40:27Z</time>
      </trkpt>
      <trkpt lat="42.8479" lon="-0.28255">
        <ele>2532.9809570312</ele>
        <time>2014-03-12T14:40:49Z</time>
      </trkpt>
      <trkpt lat="42.84789" lon="-0.28245">
        <ele>2535.6169433594</ele>
        <time>2014-03-12T14:41:07Z</time>
      </trkpt>
      <trkpt lat="42.84788" lon="-0.28228">
        <ele>2538.2270507812</ele>
        <time>2014-03-12T14:41:29Z</time>
      </trkpt>
      <trkpt lat="42.84778" lon="-0.2824">
        <ele>2541.1469726562</ele>
        <time>2014-03-12T14:41:51Z</time>
      </trkpt>
      <trkpt lat="42.84766" lon="-0.28253">
        <ele>2544.0539550781</ele>
        <time>2014-03-12T14:42:15Z</time>
      </trkpt>
      <trkpt lat="42.84762" lon="-0.28266">
        <ele>2547.3688964844</ele>
        <time>2014-03-12T14:42:34Z</time>
      </trkpt>
      <trkpt lat="42.84766" lon="-0.28282">
        <ele>2550.1840820312</ele>
        <time>2014-03-12T14:42:55Z</time>
      </trkpt>
      <trkpt lat="42.8476" lon="-0.28298">
        <ele>2552.7919921875</ele>
        <time>2014-03-12T14:43:20Z</time>
      </trkpt>
      <trkpt lat="42.84757" lon="-0.28306">
        <ele>2555.1259765625</ele>
        <time>2014-03-12T14:43:41Z</time>
      </trkpt>
      <trkpt lat="42.84755" lon="-0.28308">
        <ele>2556.6889648438</ele>
        <time>2014-03-12T14:43:58Z</time>
      </trkpt>
      <trkpt lat="42.84748" lon="-0.28294">
        <ele>2559.8500976562</ele>
        <time>2014-03-12T14:44:18Z</time>
      </trkpt>
      <trkpt lat="42.84743" lon="-0.28285">
        <ele>2562.0329589844</ele>
        <time>2014-03-12T14:44:34Z</time>
      </trkpt>
      <trkpt lat="42.84737" lon="-0.28278">
        <ele>2563.7380371094</ele>
        <time>2014-03-12T14:44:50Z</time>
      </trkpt>
      <trkpt lat="42.84737" lon="-0.2829">
        <ele>2566.4870605469</ele>
        <time>2014-03-12T14:45:08Z</time>
      </trkpt>
      <trkpt lat="42.84733" lon="-0.28306">
        <ele>2569.4450683594</ele>
        <time>2014-03-12T14:45:27Z</time>
      </trkpt>
      <trkpt lat="42.84728" lon="-0.28317">
        <ele>2572.1999511719</ele>
        <time>2014-03-12T14:45:50Z</time>
      </trkpt>
      <trkpt lat="42.84724" lon="-0.28317">
        <ele>2573.4499511719</ele>
        <time>2014-03-12T14:46:04Z</time>
      </trkpt>
      <trkpt lat="42.84722" lon="-0.28308">
        <ele>2575.544921875</ele>
        <time>2014-03-12T14:46:19Z</time>
      </trkpt>
      <trkpt lat="42.84718" lon="-0.28298">
        <ele>2577.3549804688</ele>
        <time>2014-03-12T14:46:32Z</time>
      </trkpt>
      <trkpt lat="42.84713" lon="-0.28289">
        <ele>2579.6740722656</ele>
        <time>2014-03-12T14:46:53Z</time>
      </trkpt>
      <trkpt lat="42.84713" lon="-0.2829">
        <ele>2580.1950683594</ele>
        <time>2014-03-12T14:47:14Z</time>
      </trkpt>
      <trkpt lat="42.84713" lon="-0.2829">
        <ele>2580.1101074219</ele>
        <time>2014-03-12T14:48:51Z</time>
      </trkpt>
      <trkpt lat="42.84707" lon="-0.28303">
        <ele>2583.5939941406</ele>
        <time>2014-03-12T14:49:10Z</time>
      </trkpt>
      <trkpt lat="42.84703" lon="-0.28307">
        <ele>2585.0148925781</ele>
        <time>2014-03-12T14:49:24Z</time>
      </trkpt>
      <trkpt lat="42.847" lon="-0.28296">
        <ele>2587.1669921875</ele>
        <time>2014-03-12T14:49:44Z</time>
      </trkpt>
      <trkpt lat="42.84693" lon="-0.28288">
        <ele>2589.5290527344</ele>
        <time>2014-03-12T14:49:58Z</time>
      </trkpt>
      <trkpt lat="42.84694" lon="-0.28301">
        <ele>2591.251953125</ele>
        <time>2014-03-12T14:50:15Z</time>
      </trkpt>
      <trkpt lat="42.84688" lon="-0.28313">
        <ele>2594.6650390625</ele>
        <time>2014-03-12T14:50:33Z</time>
      </trkpt>
      <trkpt lat="42.84682" lon="-0.28324">
        <ele>2597.8850097656</ele>
        <time>2014-03-12T14:50:50Z</time>
      </trkpt>
      <trkpt lat="42.84673" lon="-0.28334">
        <ele>2601.4370117188</ele>
        <time>2014-03-12T14:51:10Z</time>
      </trkpt>
      <trkpt lat="42.84666" lon="-0.28349">
        <ele>2604.912109375</ele>
        <time>2014-03-12T14:51:31Z</time>
      </trkpt>
      <trkpt lat="42.84662" lon="-0.28344">
        <ele>2606.6640625</ele>
        <time>2014-03-12T14:51:47Z</time>
      </trkpt>
      <trkpt lat="42.84658" lon="-0.28329">
        <ele>2609.8669433594</ele>
        <time>2014-03-12T14:52:06Z</time>
      </trkpt>
      <trkpt lat="42.84649" lon="-0.28321">
        <ele>2612.9409179688</ele>
        <time>2014-03-12T14:52:27Z</time>
      </trkpt>
      <trkpt lat="42.84642" lon="-0.28333">
        <ele>2615.9851074219</ele>
        <time>2014-03-12T14:52:43Z</time>
      </trkpt>
      <trkpt lat="42.84636" lon="-0.28344">
        <ele>2619.2648925781</ele>
        <time>2014-03-12T14:52:59Z</time>
      </trkpt>
      <trkpt lat="42.84631" lon="-0.2834">
        <ele>2620.8559570312</ele>
        <time>2014-03-12T14:53:14Z</time>
      </trkpt>
      <trkpt lat="42.84628" lon="-0.28329">
        <ele>2622.7600097656</ele>
        <time>2014-03-12T14:53:30Z</time>
      </trkpt>
      <trkpt lat="42.84623" lon="-0.28315">
        <ele>2625.6350097656</ele>
        <time>2014-03-12T14:53:47Z</time>
      </trkpt>
      <trkpt lat="42.8462" lon="-0.28312">
        <ele>2628.5439453125</ele>
        <time>2014-03-12T14:54:07Z</time>
      </trkpt>
      <trkpt lat="42.84616" lon="-0.28331">
        <ele>2631.5791015625</ele>
        <time>2014-03-12T14:54:28Z</time>
      </trkpt>
      <trkpt lat="42.84613" lon="-0.28326">
        <ele>2632.9851074219</ele>
        <time>2014-03-12T14:54:42Z</time>
      </trkpt>
      <trkpt lat="42.84607" lon="-0.28314">
        <ele>2636.2099609375</ele>
        <time>2014-03-12T14:54:57Z</time>
      </trkpt>
      <trkpt lat="42.846" lon="-0.283">
        <ele>2638.6459960938</ele>
        <time>2014-03-12T14:55:14Z</time>
      </trkpt>
      <trkpt lat="42.84592" lon="-0.2829">
        <ele>2641.7509765625</ele>
        <time>2014-03-12T14:55:30Z</time>
      </trkpt>
      <trkpt lat="42.84589" lon="-0.2829">
        <ele>2644.8640136719</ele>
        <time>2014-03-12T14:55:49Z</time>
      </trkpt>
      <trkpt lat="42.84584" lon="-0.28307">
        <ele>2647.9450683594</ele>
        <time>2014-03-12T14:56:07Z</time>
      </trkpt>
      <trkpt lat="42.84578" lon="-0.2831">
        <ele>2649.7399902344</ele>
        <time>2014-03-12T14:56:24Z</time>
      </trkpt>
      <trkpt lat="42.84571" lon="-0.28298">
        <ele>2652.7580566406</ele>
        <time>2014-03-12T14:56:39Z</time>
      </trkpt>
      <trkpt lat="42.84561" lon="-0.28286">
        <ele>2655.9689941406</ele>
        <time>2014-03-12T14:56:58Z</time>
      </trkpt>
      <trkpt lat="42.84555" lon="-0.28291">
        <ele>2658.7150878906</ele>
        <time>2014-03-12T14:57:13Z</time>
      </trkpt>
      <trkpt lat="42.84546" lon="-0.283">
        <ele>2661.5759277344</ele>
        <time>2014-03-12T14:57:34Z</time>
      </trkpt>
      <trkpt lat="42.84538" lon="-0.2829">
        <ele>2664.2800292969</ele>
        <time>2014-03-12T14:58:29Z</time>
      </trkpt>
      <trkpt lat="42.84529" lon="-0.28275">
        <ele>2667.8200683594</ele>
        <time>2014-03-12T14:58:49Z</time>
      </trkpt>
      <trkpt lat="42.8452" lon="-0.28262">
        <ele>2669.5090332031</ele>
        <time>2014-03-12T14:59:03Z</time>
      </trkpt>
      <trkpt lat="42.84515" lon="-0.2825">
        <ele>2672.412109375</ele>
        <time>2014-03-12T14:59:18Z</time>
      </trkpt>
      <trkpt lat="42.8451" lon="-0.28239">
        <ele>2675.0458984375</ele>
        <time>2014-03-12T14:59:35Z</time>
      </trkpt>
      <trkpt lat="42.84501" lon="-0.28236">
        <ele>2678.0729980469</ele>
        <time>2014-03-12T14:59:49Z</time>
      </trkpt>
      <trkpt lat="42.84491" lon="-0.28232">
        <ele>2681.1298828125</ele>
        <time>2014-03-12T15:00:03Z</time>
      </trkpt>
      <trkpt lat="42.84485" lon="-0.28216">
        <ele>2683.8159179688</ele>
        <time>2014-03-12T15:00:22Z</time>
      </trkpt>
      <trkpt lat="42.84485" lon="-0.282">
        <ele>2686.5290527344</ele>
        <time>2014-03-12T15:00:40Z</time>
      </trkpt>
      <trkpt lat="42.84487" lon="-0.28184">
        <ele>2689.5</ele>
        <time>2014-03-12T15:00:58Z</time>
      </trkpt>
      <trkpt lat="42.84483" lon="-0.28181">
        <ele>2691.75</ele>
        <time>2014-03-12T15:01:15Z</time>
      </trkpt>
      <trkpt lat="42.84471" lon="-0.28187">
        <ele>2695.2351074219</ele>
        <time>2014-03-12T15:01:35Z</time>
      </trkpt>
      <trkpt lat="42.84462" lon="-0.28192">
        <ele>2696.8911132812</ele>
        <time>2014-03-12T15:02:01Z</time>
      </trkpt>
      <trkpt lat="42.84467" lon="-0.28178">
        <ele>2699.5439453125</ele>
        <time>2014-03-12T15:02:19Z</time>
      </trkpt>
      <trkpt lat="42.84469" lon="-0.28169">
        <ele>2701.4050292969</ele>
        <time>2014-03-12T15:02:35Z</time>
      </trkpt>
      <trkpt lat="42.84475" lon="-0.28161">
        <ele>2702.7199707031</ele>
        <time>2014-03-12T15:02:56Z</time>
      </trkpt>
      <trkpt lat="42.8448" lon="-0.28152">
        <ele>2702.4680175781</ele>
        <time>2014-03-12T15:03:13Z</time>
      </trkpt>
      <trkpt lat="42.84475" lon="-0.28146">
        <ele>2704.4060058594</ele>
        <time>2014-03-12T15:03:27Z</time>
      </trkpt>
      <trkpt lat="42.84465" lon="-0.28135">
        <ele>2704.662109375</ele>
        <time>2014-03-12T15:04:06Z</time>
      </trkpt>
      <trkpt lat="42.84457" lon="-0.28131">
        <ele>2705.3081054688</ele>
        <time>2014-03-12T15:04:23Z</time>
      </trkpt>
      <trkpt lat="42.8446" lon="-0.2813">
        <ele>2705.1960449219</ele>
        <time>2014-03-12T15:04:44Z</time>
      </trkpt>
      <trkpt lat="42.84461" lon="-0.28129">
        <ele>2704.6450195312</ele>
        <time>2014-03-12T15:05:17Z</time>
      </trkpt>
      <trkpt lat="42.8446" lon="-0.28131">
        <ele>2705.6101074219</ele>
        <time>2014-03-12T15:05:41Z</time>
      </trkpt>
      <trkpt lat="42.84462" lon="-0.28134">
        <ele>2705.6499023438</ele>
        <time>2014-03-12T15:05:50Z</time>
      </trkpt>
      <trkpt lat="42.84467" lon="-0.28138">
        <ele>2704.8510742188</ele>
        <time>2014-03-12T15:06:07Z</time>
      </trkpt>
      <trkpt lat="42.84459" lon="-0.28131">
        <ele>2705.6298828125</ele>
        <time>2014-03-12T15:06:33Z</time>
      </trkpt>
      <trkpt lat="42.84458" lon="-0.2813">
        <ele>2705.9670410156</ele>
        <time>2014-03-12T15:06:44Z</time>
      </trkpt>
      <trkpt lat="42.84461" lon="-0.28135">
        <ele>2705.8259277344</ele>
        <time>2014-03-12T15:07:07Z</time>
      </trkpt>
      <trkpt lat="42.84467" lon="-0.28134">
        <ele>2704.2529296875</ele>
        <time>2014-03-12T15:20:54Z</time>
      </trkpt>
      <trkpt lat="42.84468" lon="-0.28133">
        <ele>2704.2529296875</ele>
        <time>2014-03-12T15:20:55Z</time>
      </trkpt>
      <trkpt lat="42.84472" lon="-0.28138">
        <ele>2701.8820800781</ele>
        <time>2014-03-12T15:21:18Z</time>
      </trkpt>
      <trkpt lat="42.84473" lon="-0.28139">
        <ele>2701.3969726562</ele>
        <time>2014-03-12T15:21:20Z</time>
      </trkpt>
      <trkpt lat="42.84484" lon="-0.28151">
        <ele>2701.1799316406</ele>
        <time>2014-03-12T15:21:34Z</time>
      </trkpt>
      <trkpt lat="42.84484" lon="-0.28156">
        <ele>2700.2290039062</ele>
        <time>2014-03-12T15:21:46Z</time>
      </trkpt>
      <trkpt lat="42.84479" lon="-0.28159">
        <ele>2699.9838867188</ele>
        <time>2014-03-12T15:21:57Z</time>
      </trkpt>
      <trkpt lat="42.8447" lon="-0.28179">
        <ele>2698.5490722656</ele>
        <time>2014-03-12T15:22:11Z</time>
      </trkpt>
      <trkpt lat="42.84475" lon="-0.28186">
        <ele>2697.7160644531</ele>
        <time>2014-03-12T15:22:13Z</time>
      </trkpt>
      <trkpt lat="42.84479" lon="-0.28186">
        <ele>2693.87109375</ele>
        <time>2014-03-12T15:22:14Z</time>
      </trkpt>
      <trkpt lat="42.84483" lon="-0.28184">
        <ele>2693.8701171875</ele>
        <time>2014-03-12T15:22:15Z</time>
      </trkpt>
      <trkpt lat="42.84491" lon="-0.28187">
        <ele>2691.3850097656</ele>
        <time>2014-03-12T15:22:17Z</time>
      </trkpt>
      <trkpt lat="42.84491" lon="-0.28194">
        <ele>2688.3588867188</ele>
        <time>2014-03-12T15:22:18Z</time>
      </trkpt>
      <trkpt lat="42.84505" lon="-0.28211">
        <ele>2680.7470703125</ele>
        <time>2014-03-12T15:22:21Z</time>
      </trkpt>
      <trkpt lat="42.84525" lon="-0.28256">
        <ele>2672.7980957031</ele>
        <time>2014-03-12T15:22:27Z</time>
      </trkpt>
      <trkpt lat="42.84537" lon="-0.28267">
        <ele>2668.5280761719</ele>
        <time>2014-03-12T15:22:30Z</time>
      </trkpt>
      <trkpt lat="42.84541" lon="-0.28273">
        <ele>2668.5280761719</ele>
        <time>2014-03-12T15:22:31Z</time>
      </trkpt>
      <trkpt lat="42.8455" lon="-0.28281">
        <ele>2662.8100585938</ele>
        <time>2014-03-12T15:22:33Z</time>
      </trkpt>
      <trkpt lat="42.84555" lon="-0.28283">
        <ele>2662.8110351562</ele>
        <time>2014-03-12T15:22:34Z</time>
      </trkpt>
      <trkpt lat="42.8456" lon="-0.28288">
        <ele>2659.3349609375</ele>
        <time>2014-03-12T15:22:35Z</time>
      </trkpt>
      <trkpt lat="42.84563" lon="-0.28295">
        <ele>2659.3349609375</ele>
        <time>2014-03-12T15:22:36Z</time>
      </trkpt>
      <trkpt lat="42.84573" lon="-0.28299">
        <ele>2657.8449707031</ele>
        <time>2014-03-12T15:22:38Z</time>
      </trkpt>
      <trkpt lat="42.84576" lon="-0.283">
        <ele>2655.3911132812</ele>
        <time>2014-03-12T15:22:39Z</time>
      </trkpt>
      <trkpt lat="42.84589" lon="-0.28301">
        <ele>2649.7390136719</ele>
        <time>2014-03-12T15:22:42Z</time>
      </trkpt>
      <trkpt lat="42.84593" lon="-0.28302">
        <ele>2649.7390136719</ele>
        <time>2014-03-12T15:22:43Z</time>
      </trkpt>
      <trkpt lat="42.84596" lon="-0.28307">
        <ele>2646.080078125</ele>
        <time>2014-03-12T15:22:44Z</time>
      </trkpt>
      <trkpt lat="42.84599" lon="-0.28312">
        <ele>2646.0810546875</ele>
        <time>2014-03-12T15:22:45Z</time>
      </trkpt>
      <trkpt lat="42.84602" lon="-0.28323">
        <ele>2643.8120117188</ele>
        <time>2014-03-12T15:22:47Z</time>
      </trkpt>
      <trkpt lat="42.84606" lon="-0.28319">
        <ele>2640.8190917969</ele>
        <time>2014-03-12T15:22:50Z</time>
      </trkpt>
      <trkpt lat="42.84606" lon="-0.28317">
        <ele>2639.4528808594</ele>
        <time>2014-03-12T15:22:52Z</time>
      </trkpt>
      <trkpt lat="42.84607" lon="-0.28315">
        <ele>2639.6499023438</ele>
        <time>2014-03-12T15:22:55Z</time>
      </trkpt>
      <trkpt lat="42.84613" lon="-0.28325">
        <ele>2637.0869140625</ele>
        <time>2014-03-12T15:22:59Z</time>
      </trkpt>
      <trkpt lat="42.84613" lon="-0.28326">
        <ele>2636.666015625</ele>
        <time>2014-03-12T15:23:16Z</time>
      </trkpt>
      <trkpt lat="42.8462" lon="-0.28342">
        <ele>2634.1569824219</ele>
        <time>2014-03-12T15:23:31Z</time>
      </trkpt>
      <trkpt lat="42.84621" lon="-0.28346">
        <ele>2632.5610351562</ele>
        <time>2014-03-12T15:23:32Z</time>
      </trkpt>
      <trkpt lat="42.84626" lon="-0.28348">
        <ele>2630.7189941406</ele>
        <time>2014-03-12T15:23:34Z</time>
      </trkpt>
      <trkpt lat="42.84629" lon="-0.28344">
        <ele>2627.2028808594</ele>
        <time>2014-03-12T15:23:35Z</time>
      </trkpt>
      <trkpt lat="42.84639" lon="-0.28351">
        <ele>2624.9069824219</ele>
        <time>2014-03-12T15:23:38Z</time>
      </trkpt>
      <trkpt lat="42.84647" lon="-0.28346">
        <ele>2618.2019042969</ele>
        <time>2014-03-12T15:23:40Z</time>
      </trkpt>
      <trkpt lat="42.84651" lon="-0.28341">
        <ele>2618.2009277344</ele>
        <time>2014-03-12T15:23:41Z</time>
      </trkpt>
      <trkpt lat="42.84655" lon="-0.28336">
        <ele>2614.75390625</ele>
        <time>2014-03-12T15:23:42Z</time>
      </trkpt>
      <trkpt lat="42.84657" lon="-0.28325">
        <ele>2613.1079101562</ele>
        <time>2014-03-12T15:23:45Z</time>
      </trkpt>
      <trkpt lat="42.84657" lon="-0.28323">
        <ele>2613.5439453125</ele>
        <time>2014-03-12T15:24:09Z</time>
      </trkpt>
      <trkpt lat="42.84657" lon="-0.28322">
        <ele>2614.1750488281</ele>
        <time>2014-03-12T15:24:19Z</time>
      </trkpt>
      <trkpt lat="42.84666" lon="-0.28326">
        <ele>2612.1149902344</ele>
        <time>2014-03-12T15:24:23Z</time>
      </trkpt>
      <trkpt lat="42.84674" lon="-0.28327">
        <ele>2608.5</ele>
        <time>2014-03-12T15:24:26Z</time>
      </trkpt>
      <trkpt lat="42.84678" lon="-0.28326">
        <ele>2606.6130371094</ele>
        <time>2014-03-12T15:24:28Z</time>
      </trkpt>
      <trkpt lat="42.84682" lon="-0.28319">
        <ele>2604.291015625</ele>
        <time>2014-03-12T15:24:30Z</time>
      </trkpt>
      <trkpt lat="42.84692" lon="-0.28311">
        <ele>2600.6809082031</ele>
        <time>2014-03-12T15:24:35Z</time>
      </trkpt>
      <trkpt lat="42.84694" lon="-0.28306">
        <ele>2597.2661132812</ele>
        <time>2014-03-12T15:24:36Z</time>
      </trkpt>
      <trkpt lat="42.84697" lon="-0.28305">
        <ele>2597.2680664062</ele>
        <time>2014-03-12T15:24:37Z</time>
      </trkpt>
      <trkpt lat="42.84702" lon="-0.28302">
        <ele>2593.0739746094</ele>
        <time>2014-03-12T15:24:39Z</time>
      </trkpt>
      <trkpt lat="42.84702" lon="-0.28298">
        <ele>2593.0769042969</ele>
        <time>2014-03-12T15:24:40Z</time>
      </trkpt>
      <trkpt lat="42.8471" lon="-0.28303">
        <ele>2590.33203125</ele>
        <time>2014-03-12T15:24:44Z</time>
      </trkpt>
      <trkpt lat="42.84719" lon="-0.28303">
        <ele>2586.5480957031</ele>
        <time>2014-03-12T15:24:47Z</time>
      </trkpt>
      <trkpt lat="42.8472" lon="-0.283">
        <ele>2584.4838867188</ele>
        <time>2014-03-12T15:24:49Z</time>
      </trkpt>
      <trkpt lat="42.8472" lon="-0.28291">
        <ele>2584.544921875</ele>
        <time>2014-03-12T15:25:06Z</time>
      </trkpt>
      <trkpt lat="42.8472" lon="-0.2829">
        <ele>2583.7971191406</ele>
        <time>2014-03-12T15:25:18Z</time>
      </trkpt>
      <trkpt lat="42.8473" lon="-0.28294">
        <ele>2582</ele>
        <time>2014-03-12T15:25:21Z</time>
      </trkpt>
      <trkpt lat="42.84732" lon="-0.28298">
        <ele>2578.4890136719</ele>
        <time>2014-03-12T15:25:22Z</time>
      </trkpt>
      <trkpt lat="42.84738" lon="-0.28303">
        <ele>2577.2199707031</ele>
        <time>2014-03-12T15:25:24Z</time>
      </trkpt>
      <trkpt lat="42.84743" lon="-0.28298">
        <ele>2574.8920898438</ele>
        <time>2014-03-12T15:25:26Z</time>
      </trkpt>
      <trkpt lat="42.84747" lon="-0.28297">
        <ele>2572.1569824219</ele>
        <time>2014-03-12T15:25:27Z</time>
      </trkpt>
      <trkpt lat="42.84753" lon="-0.28292">
        <ele>2566.3068847656</ele>
        <time>2014-03-12T15:25:30Z</time>
      </trkpt>
      <trkpt lat="42.84756" lon="-0.28291">
        <ele>2566.3068847656</ele>
        <time>2014-03-12T15:25:31Z</time>
      </trkpt>
      <trkpt lat="42.8476" lon="-0.28292">
        <ele>2563.1530761719</ele>
        <time>2014-03-12T15:25:32Z</time>
      </trkpt>
      <trkpt lat="42.84763" lon="-0.28289">
        <ele>2563.1530761719</ele>
        <time>2014-03-12T15:25:33Z</time>
      </trkpt>
      <trkpt lat="42.84765" lon="-0.28283">
        <ele>2558.8400878906</ele>
        <time>2014-03-12T15:25:34Z</time>
      </trkpt>
      <trkpt lat="42.84765" lon="-0.28276">
        <ele>2558.8400878906</ele>
        <time>2014-03-12T15:25:35Z</time>
      </trkpt>
      <trkpt lat="42.84764" lon="-0.28269">
        <ele>2556.0629882812</ele>
        <time>2014-03-12T15:25:36Z</time>
      </trkpt>
      <trkpt lat="42.84773" lon="-0.2824">
        <ele>2550.5939941406</ele>
        <time>2014-03-12T15:25:40Z</time>
      </trkpt>
      <trkpt lat="42.84793" lon="-0.28217">
        <ele>2548.4799804688</ele>
        <time>2014-03-12T15:25:44Z</time>
      </trkpt>
      <trkpt lat="42.84798" lon="-0.28212">
        <ele>2547.9750976562</ele>
        <time>2014-03-12T15:25:45Z</time>
      </trkpt>
      <trkpt lat="42.84816" lon="-0.28193">
        <ele>2545.7548828125</ele>
        <time>2014-03-12T15:25:49Z</time>
      </trkpt>
      <trkpt lat="42.84822" lon="-0.2818">
        <ele>2543.7209472656</ele>
        <time>2014-03-12T15:25:51Z</time>
      </trkpt>
      <trkpt lat="42.84823" lon="-0.28171">
        <ele>2542.2780761719</ele>
        <time>2014-03-12T15:25:58Z</time>
      </trkpt>
      <trkpt lat="42.84824" lon="-0.28171">
        <ele>2542.3520507812</ele>
        <time>2014-03-12T15:26:07Z</time>
      </trkpt>
      <trkpt lat="42.84828" lon="-0.28178">
        <ele>2540.5710449219</ele>
        <time>2014-03-12T15:26:10Z</time>
      </trkpt>
      <trkpt lat="42.84835" lon="-0.28185">
        <ele>2537.4431152344</ele>
        <time>2014-03-12T15:26:12Z</time>
      </trkpt>
      <trkpt lat="42.8484" lon="-0.2819">
        <ele>2533.7829589844</ele>
        <time>2014-03-12T15:26:13Z</time>
      </trkpt>
      <trkpt lat="42.84845" lon="-0.28191">
        <ele>2529.9680175781</ele>
        <time>2014-03-12T15:26:14Z</time>
      </trkpt>
      <trkpt lat="42.84851" lon="-0.28194">
        <ele>2529.9680175781</ele>
        <time>2014-03-12T15:26:15Z</time>
      </trkpt>
      <trkpt lat="42.84857" lon="-0.28195">
        <ele>2525.8159179688</ele>
        <time>2014-03-12T15:26:16Z</time>
      </trkpt>
      <trkpt lat="42.84862" lon="-0.28197">
        <ele>2525.8159179688</ele>
        <time>2014-03-12T15:26:17Z</time>
      </trkpt>
      <trkpt lat="42.84879" lon="-0.28203">
        <ele>2518.2280273438</ele>
        <time>2014-03-12T15:26:20Z</time>
      </trkpt>
      <trkpt lat="42.84884" lon="-0.28203">
        <ele>2518.2280273438</ele>
        <time>2014-03-12T15:26:21Z</time>
      </trkpt>
      <trkpt lat="42.8489" lon="-0.28205">
        <ele>2512.9689941406</ele>
        <time>2014-03-12T15:26:22Z</time>
      </trkpt>
      <trkpt lat="42.84903" lon="-0.2821">
        <ele>2508.212890625</ele>
        <time>2014-03-12T15:26:24Z</time>
      </trkpt>
      <trkpt lat="42.8491" lon="-0.28214">
        <ele>2503.9331054688</ele>
        <time>2014-03-12T15:26:25Z</time>
      </trkpt>
      <trkpt lat="42.84921" lon="-0.2821">
        <ele>2499.7629394531</ele>
        <time>2014-03-12T15:26:27Z</time>
      </trkpt>
      <trkpt lat="42.84921" lon="-0.28208">
        <ele>2499.7629394531</ele>
        <time>2014-03-12T15:26:28Z</time>
      </trkpt>
      <trkpt lat="42.84919" lon="-0.28208">
        <ele>2499.1708984375</ele>
        <time>2014-03-12T15:27:15Z</time>
      </trkpt>
      <trkpt lat="42.84922" lon="-0.28218">
        <ele>2497.7390136719</ele>
        <time>2014-03-12T15:27:20Z</time>
      </trkpt>
      <trkpt lat="42.84929" lon="-0.28218">
        <ele>2495.7548828125</ele>
        <time>2014-03-12T15:27:24Z</time>
      </trkpt>
      <trkpt lat="42.84932" lon="-0.28211">
        <ele>2495.6149902344</ele>
        <time>2014-03-12T15:27:35Z</time>
      </trkpt>
      <trkpt lat="42.84933" lon="-0.28209">
        <ele>2495.3000488281</ele>
        <time>2014-03-12T15:27:46Z</time>
      </trkpt>
      <trkpt lat="42.84941" lon="-0.28199">
        <ele>2493.7890625</ele>
        <time>2014-03-12T15:27:50Z</time>
      </trkpt>
      <trkpt lat="42.84947" lon="-0.28191">
        <ele>2492.8110351562</ele>
        <time>2014-03-12T15:27:52Z</time>
      </trkpt>
      <trkpt lat="42.84956" lon="-0.28171">
        <ele>2490.583984375</ele>
        <time>2014-03-12T15:27:56Z</time>
      </trkpt>
      <trkpt lat="42.84975" lon="-0.28127">
        <ele>2487.4050292969</ele>
        <time>2014-03-12T15:28:05Z</time>
      </trkpt>
      <trkpt lat="42.85" lon="-0.2809">
        <ele>2483.6398925781</ele>
        <time>2014-03-12T15:28:14Z</time>
      </trkpt>
      <trkpt lat="42.85009" lon="-0.2808">
        <ele>2481.9829101562</ele>
        <time>2014-03-12T15:28:16Z</time>
      </trkpt>
      <trkpt lat="42.85024" lon="-0.28061">
        <ele>2479.6740722656</ele>
        <time>2014-03-12T15:28:20Z</time>
      </trkpt>
      <trkpt lat="42.85046" lon="-0.2804">
        <ele>2478.0830078125</ele>
        <time>2014-03-12T15:28:27Z</time>
      </trkpt>
      <trkpt lat="42.85063" lon="-0.27994">
        <ele>2474.2380371094</ele>
        <time>2014-03-12T15:28:41Z</time>
      </trkpt>
      <trkpt lat="42.85051" lon="-0.27971">
        <ele>2469.7971191406</ele>
        <time>2014-03-12T15:28:56Z</time>
      </trkpt>
      <trkpt lat="42.85048" lon="-0.27964">
        <ele>2469.7971191406</ele>
        <time>2014-03-12T15:28:57Z</time>
      </trkpt>
      <trkpt lat="42.85045" lon="-0.27952">
        <ele>2468.9089355469</ele>
        <time>2014-03-12T15:28:59Z</time>
      </trkpt>
      <trkpt lat="42.85055" lon="-0.27942">
        <ele>2468.1689453125</ele>
        <time>2014-03-12T15:29:04Z</time>
      </trkpt>
      <trkpt lat="42.85064" lon="-0.27944">
        <ele>2466.5070800781</ele>
        <time>2014-03-12T15:29:06Z</time>
      </trkpt>
      <trkpt lat="42.85074" lon="-0.27946">
        <ele>2464.4860839844</ele>
        <time>2014-03-12T15:29:08Z</time>
      </trkpt>
      <trkpt lat="42.85079" lon="-0.27948">
        <ele>2461.6398925781</ele>
        <time>2014-03-12T15:29:09Z</time>
      </trkpt>
      <trkpt lat="42.85089" lon="-0.2795">
        <ele>2458.9599609375</ele>
        <time>2014-03-12T15:29:11Z</time>
      </trkpt>
      <trkpt lat="42.85097" lon="-0.27954">
        <ele>2456.4450683594</ele>
        <time>2014-03-12T15:29:13Z</time>
      </trkpt>
      <trkpt lat="42.8511" lon="-0.27949">
        <ele>2453.9851074219</ele>
        <time>2014-03-12T15:29:15Z</time>
      </trkpt>
      <trkpt lat="42.85118" lon="-0.27946">
        <ele>2451.3029785156</ele>
        <time>2014-03-12T15:29:17Z</time>
      </trkpt>
      <trkpt lat="42.85117" lon="-0.27947">
        <ele>2451.1840820312</ele>
        <time>2014-03-12T15:29:25Z</time>
      </trkpt>
      <trkpt lat="42.85126" lon="-0.27957">
        <ele>2446.373046875</ele>
        <time>2014-03-12T15:29:28Z</time>
      </trkpt>
      <trkpt lat="42.85133" lon="-0.27957">
        <ele>2446.373046875</ele>
        <time>2014-03-12T15:29:29Z</time>
      </trkpt>
      <trkpt lat="42.85141" lon="-0.27966">
        <ele>2439.6640625</ele>
        <time>2014-03-12T15:29:31Z</time>
      </trkpt>
      <trkpt lat="42.85146" lon="-0.27968">
        <ele>2439.6640625</ele>
        <time>2014-03-12T15:29:32Z</time>
      </trkpt>
      <trkpt lat="42.85151" lon="-0.27971">
        <ele>2435.5119628906</ele>
        <time>2014-03-12T15:29:33Z</time>
      </trkpt>
      <trkpt lat="42.85162" lon="-0.27978">
        <ele>2433.2429199219</ele>
        <time>2014-03-12T15:29:36Z</time>
      </trkpt>
      <trkpt lat="42.85167" lon="-0.27979">
        <ele>2429.6840820312</ele>
        <time>2014-03-12T15:29:37Z</time>
      </trkpt>
      <trkpt lat="42.85171" lon="-0.2798">
        <ele>2429.6840820312</ele>
        <time>2014-03-12T15:29:38Z</time>
      </trkpt>
      <trkpt lat="42.85175" lon="-0.27981">
        <ele>2426.1931152344</ele>
        <time>2014-03-12T15:29:39Z</time>
      </trkpt>
      <trkpt lat="42.85178" lon="-0.27982">
        <ele>2422.7529296875</ele>
        <time>2014-03-12T15:29:40Z</time>
      </trkpt>
      <trkpt lat="42.85181" lon="-0.27985">
        <ele>2422.7529296875</ele>
        <time>2014-03-12T15:29:41Z</time>
      </trkpt>
      <trkpt lat="42.85194" lon="-0.27984">
        <ele>2419.7849121094</ele>
        <time>2014-03-12T15:29:43Z</time>
      </trkpt>
      <trkpt lat="42.85202" lon="-0.27979">
        <ele>2416.8081054688</ele>
        <time>2014-03-12T15:29:45Z</time>
      </trkpt>
      <trkpt lat="42.85202" lon="-0.27979">
        <ele>2417.0080566406</ele>
        <time>2014-03-12T15:29:54Z</time>
      </trkpt>
      <trkpt lat="42.85203" lon="-0.27979">
        <ele>2416.8620605469</ele>
        <time>2014-03-12T15:30:10Z</time>
      </trkpt>
      <trkpt lat="42.85204" lon="-0.2799">
        <ele>2415.5949707031</ele>
        <time>2014-03-12T15:30:13Z</time>
      </trkpt>
      <trkpt lat="42.85206" lon="-0.27994">
        <ele>2412.4060058594</ele>
        <time>2014-03-12T15:30:14Z</time>
      </trkpt>
      <trkpt lat="42.85209" lon="-0.27999">
        <ele>2407.8911132812</ele>
        <time>2014-03-12T15:30:15Z</time>
      </trkpt>
      <trkpt lat="42.85214" lon="-0.28008">
        <ele>2403.7971191406</ele>
        <time>2014-03-12T15:30:17Z</time>
      </trkpt>
      <trkpt lat="42.85217" lon="-0.28013">
        <ele>2403.8139648438</ele>
        <time>2014-03-12T15:30:18Z</time>
      </trkpt>
      <trkpt lat="42.85225" lon="-0.28023">
        <ele>2399.5849609375</ele>
        <time>2014-03-12T15:30:20Z</time>
      </trkpt>
      <trkpt lat="42.85234" lon="-0.28028">
        <ele>2396.0319824219</ele>
        <time>2014-03-12T15:30:22Z</time>
      </trkpt>
      <trkpt lat="42.85243" lon="-0.28031">
        <ele>2388.0490722656</ele>
        <time>2014-03-12T15:30:24Z</time>
      </trkpt>
      <trkpt lat="42.85247" lon="-0.28031">
        <ele>2388.0710449219</ele>
        <time>2014-03-12T15:30:25Z</time>
      </trkpt>
      <trkpt lat="42.85253" lon="-0.28028">
        <ele>2385.126953125</ele>
        <time>2014-03-12T15:30:27Z</time>
      </trkpt>
      <trkpt lat="42.85256" lon="-0.28027">
        <ele>2383.462890625</ele>
        <time>2014-03-12T15:30:29Z</time>
      </trkpt>
      <trkpt lat="42.85256" lon="-0.28026">
        <ele>2383.2509765625</ele>
        <time>2014-03-12T15:30:53Z</time>
      </trkpt>
      <trkpt lat="42.85257" lon="-0.28025">
        <ele>2383.3889160156</ele>
        <time>2014-03-12T15:31:14Z</time>
      </trkpt>
      <trkpt lat="42.8526" lon="-0.28029">
        <ele>2380.8559570312</ele>
        <time>2014-03-12T15:31:16Z</time>
      </trkpt>
      <trkpt lat="42.8526" lon="-0.28046">
        <ele>2377.9450683594</ele>
        <time>2014-03-12T15:31:19Z</time>
      </trkpt>
      <trkpt lat="42.85272" lon="-0.28045">
        <ele>2375.2390136719</ele>
        <time>2014-03-12T15:31:23Z</time>
      </trkpt>
      <trkpt lat="42.8528" lon="-0.28041">
        <ele>2371.0590820312</ele>
        <time>2014-03-12T15:31:25Z</time>
      </trkpt>
      <trkpt lat="42.85292" lon="-0.28042">
        <ele>2366.5249023438</ele>
        <time>2014-03-12T15:31:27Z</time>
      </trkpt>
      <trkpt lat="42.85297" lon="-0.28044">
        <ele>2366.5249023438</ele>
        <time>2014-03-12T15:31:28Z</time>
      </trkpt>
      <trkpt lat="42.85308" lon="-0.28049">
        <ele>2362.1809082031</ele>
        <time>2014-03-12T15:31:30Z</time>
      </trkpt>
      <trkpt lat="42.85313" lon="-0.28051">
        <ele>2358.3330078125</ele>
        <time>2014-03-12T15:31:31Z</time>
      </trkpt>
      <trkpt lat="42.85327" lon="-0.28052">
        <ele>2354.3779296875</ele>
        <time>2014-03-12T15:31:33Z</time>
      </trkpt>
      <trkpt lat="42.85335" lon="-0.28053">
        <ele>2351.6721191406</ele>
        <time>2014-03-12T15:31:35Z</time>
      </trkpt>
      <trkpt lat="42.85347" lon="-0.28051">
        <ele>2348.9060058594</ele>
        <time>2014-03-12T15:31:37Z</time>
      </trkpt>
      <trkpt lat="42.85358" lon="-0.28049">
        <ele>2344.8259277344</ele>
        <time>2014-03-12T15:31:39Z</time>
      </trkpt>
      <trkpt lat="42.85376" lon="-0.28052">
        <ele>2342.37890625</ele>
        <time>2014-03-12T15:31:42Z</time>
      </trkpt>
      <trkpt lat="42.85383" lon="-0.28054">
        <ele>2339.1030273438</ele>
        <time>2014-03-12T15:31:43Z</time>
      </trkpt>
      <trkpt lat="42.85392" lon="-0.28058">
        <ele>2335.6809082031</ele>
        <time>2014-03-12T15:31:45Z</time>
      </trkpt>
      <trkpt lat="42.85398" lon="-0.28061">
        <ele>2332.3959960938</ele>
        <time>2014-03-12T15:31:46Z</time>
      </trkpt>
      <trkpt lat="42.85403" lon="-0.28063">
        <ele>2332.3959960938</ele>
        <time>2014-03-12T15:31:47Z</time>
      </trkpt>
      <trkpt lat="42.85408" lon="-0.28065">
        <ele>2328.75</ele>
        <time>2014-03-12T15:31:48Z</time>
      </trkpt>
      <trkpt lat="42.85412" lon="-0.28067">
        <ele>2328.75</ele>
        <time>2014-03-12T15:31:49Z</time>
      </trkpt>
      <trkpt lat="42.85416" lon="-0.28069">
        <ele>2324.705078125</ele>
        <time>2014-03-12T15:31:50Z</time>
      </trkpt>
      <trkpt lat="42.85421" lon="-0.28071">
        <ele>2320.7280273438</ele>
        <time>2014-03-12T15:31:52Z</time>
      </trkpt>
      <trkpt lat="42.85424" lon="-0.28074">
        <ele>2317.330078125</ele>
        <time>2014-03-12T15:31:53Z</time>
      </trkpt>
      <trkpt lat="42.85429" lon="-0.28077">
        <ele>2317.330078125</ele>
        <time>2014-03-12T15:31:54Z</time>
      </trkpt>
      <trkpt lat="42.85435" lon="-0.28083">
        <ele>2313.662109375</ele>
        <time>2014-03-12T15:31:56Z</time>
      </trkpt>
      <trkpt lat="42.85447" lon="-0.28087">
        <ele>2309.5480957031</ele>
        <time>2014-03-12T15:31:58Z</time>
      </trkpt>
      <trkpt lat="42.85452" lon="-0.28089">
        <ele>2304.6940917969</ele>
        <time>2014-03-12T15:31:59Z</time>
      </trkpt>
      <trkpt lat="42.85458" lon="-0.28088">
        <ele>2304.6940917969</ele>
        <time>2014-03-12T15:32:00Z</time>
      </trkpt>
      <trkpt lat="42.85461" lon="-0.28087">
        <ele>2301.3569335938</ele>
        <time>2014-03-12T15:32:01Z</time>
      </trkpt>
      <trkpt lat="42.8547" lon="-0.28095">
        <ele>2298.7810058594</ele>
        <time>2014-03-12T15:32:03Z</time>
      </trkpt>
      <trkpt lat="42.85486" lon="-0.28107">
        <ele>2290.2880859375</ele>
        <time>2014-03-12T15:32:06Z</time>
      </trkpt>
      <trkpt lat="42.85491" lon="-0.28111">
        <ele>2290.2880859375</ele>
        <time>2014-03-12T15:32:07Z</time>
      </trkpt>
      <trkpt lat="42.85495" lon="-0.28115">
        <ele>2285.8889160156</ele>
        <time>2014-03-12T15:32:08Z</time>
      </trkpt>
      <trkpt lat="42.85497" lon="-0.28118">
        <ele>2282.1899414062</ele>
        <time>2014-03-12T15:32:09Z</time>
      </trkpt>
      <trkpt lat="42.85506" lon="-0.28119">
        <ele>2278.6589355469</ele>
        <time>2014-03-12T15:32:11Z</time>
      </trkpt>
      <trkpt lat="42.85506" lon="-0.28117">
        <ele>2278.6589355469</ele>
        <time>2014-03-12T15:32:12Z</time>
      </trkpt>
      <trkpt lat="42.85504" lon="-0.28111">
        <ele>2278.6879882812</ele>
        <time>2014-03-12T15:32:29Z</time>
      </trkpt>
      <trkpt lat="42.85505" lon="-0.28112">
        <ele>2278.0439453125</ele>
        <time>2014-03-12T15:32:36Z</time>
      </trkpt>
      <trkpt lat="42.85514" lon="-0.28115">
        <ele>2275.3701171875</ele>
        <time>2014-03-12T15:32:40Z</time>
      </trkpt>
      <trkpt lat="42.85519" lon="-0.28114">
        <ele>2273.9431152344</ele>
        <time>2014-03-12T15:32:41Z</time>
      </trkpt>
      <trkpt lat="42.8553" lon="-0.28122">
        <ele>2268.5209960938</ele>
        <time>2014-03-12T15:32:44Z</time>
      </trkpt>
      <trkpt lat="42.85533" lon="-0.28127">
        <ele>2268.5209960938</ele>
        <time>2014-03-12T15:32:45Z</time>
      </trkpt>
      <trkpt lat="42.85535" lon="-0.2813">
        <ele>2264.5358886719</ele>
        <time>2014-03-12T15:32:46Z</time>
      </trkpt>
      <trkpt lat="42.85539" lon="-0.28134">
        <ele>2264.5358886719</ele>
        <time>2014-03-12T15:32:47Z</time>
      </trkpt>
      <trkpt lat="42.85539" lon="-0.28138">
        <ele>2261.0590820312</ele>
        <time>2014-03-12T15:32:48Z</time>
      </trkpt>
      <trkpt lat="42.85538" lon="-0.28141">
        <ele>2259.7700195312</ele>
        <time>2014-03-12T15:32:51Z</time>
      </trkpt>
      <trkpt lat="42.85537" lon="-0.28141">
        <ele>2260.2790527344</ele>
        <time>2014-03-12T15:33:40Z</time>
      </trkpt>
      <trkpt lat="42.85544" lon="-0.28142">
        <ele>2258.876953125</ele>
        <time>2014-03-12T15:33:43Z</time>
      </trkpt>
      <trkpt lat="42.8555" lon="-0.2814">
        <ele>2255.5849609375</ele>
        <time>2014-03-12T15:33:45Z</time>
      </trkpt>
      <trkpt lat="42.85556" lon="-0.28148">
        <ele>2253.2270507812</ele>
        <time>2014-03-12T15:33:48Z</time>
      </trkpt>
      <trkpt lat="42.8556" lon="-0.2815">
        <ele>2249.9509277344</ele>
        <time>2014-03-12T15:33:49Z</time>
      </trkpt>
      <trkpt lat="42.85563" lon="-0.28152">
        <ele>2249.9790039062</ele>
        <time>2014-03-12T15:33:50Z</time>
      </trkpt>
      <trkpt lat="42.85564" lon="-0.28157">
        <ele>2247.6298828125</ele>
        <time>2014-03-12T15:33:51Z</time>
      </trkpt>
      <trkpt lat="42.85566" lon="-0.28171">
        <ele>2240.2019042969</ele>
        <time>2014-03-12T15:33:54Z</time>
      </trkpt>
      <trkpt lat="42.8557" lon="-0.2817">
        <ele>2240.2309570312</ele>
        <time>2014-03-12T15:33:55Z</time>
      </trkpt>
      <trkpt lat="42.85571" lon="-0.28169">
        <ele>2238.1320800781</ele>
        <time>2014-03-12T15:33:57Z</time>
      </trkpt>
      <trkpt lat="42.8557" lon="-0.28168">
        <ele>2238.8449707031</ele>
        <time>2014-03-12T15:34:11Z</time>
      </trkpt>
      <trkpt lat="42.8557" lon="-0.28174">
        <ele>2237.3679199219</ele>
        <time>2014-03-12T15:34:14Z</time>
      </trkpt>
      <trkpt lat="42.85573" lon="-0.2818">
        <ele>2234.5219726562</ele>
        <time>2014-03-12T15:34:16Z</time>
      </trkpt>
      <trkpt lat="42.85577" lon="-0.2818">
        <ele>2232.0471191406</ele>
        <time>2014-03-12T15:34:18Z</time>
      </trkpt>
      <trkpt lat="42.85579" lon="-0.28179">
        <ele>2229.958984375</ele>
        <time>2014-03-12T15:34:19Z</time>
      </trkpt>
      <trkpt lat="42.85582" lon="-0.28185">
        <ele>2226.1650390625</ele>
        <time>2014-03-12T15:34:23Z</time>
      </trkpt>
      <trkpt lat="42.85585" lon="-0.28193">
        <ele>2224.0510253906</ele>
        <time>2014-03-12T15:34:25Z</time>
      </trkpt>
      <trkpt lat="42.85588" lon="-0.28192">
        <ele>2220.2810058594</ele>
        <time>2014-03-12T15:34:26Z</time>
      </trkpt>
      <trkpt lat="42.85589" lon="-0.2819">
        <ele>2220.2810058594</ele>
        <time>2014-03-12T15:34:27Z</time>
      </trkpt>
      <trkpt lat="42.85589" lon="-0.28188">
        <ele>2218.9221191406</ele>
        <time>2014-03-12T15:34:29Z</time>
      </trkpt>
      <trkpt lat="42.85593" lon="-0.28189">
        <ele>2218.7800292969</ele>
        <time>2014-03-12T15:34:39Z</time>
      </trkpt>
      <trkpt lat="42.85592" lon="-0.28196">
        <ele>2215.9919433594</ele>
        <time>2014-03-12T15:34:43Z</time>
      </trkpt>
      <trkpt lat="42.85598" lon="-0.28198">
        <ele>2213.8149414062</ele>
        <time>2014-03-12T15:34:46Z</time>
      </trkpt>
      <trkpt lat="42.85597" lon="-0.28204">
        <ele>2211.8830566406</ele>
        <time>2014-03-12T15:34:48Z</time>
      </trkpt>
      <trkpt lat="42.85598" lon="-0.2821">
        <ele>2208.0200195312</ele>
        <time>2014-03-12T15:34:50Z</time>
      </trkpt>
      <trkpt lat="42.85601" lon="-0.28212">
        <ele>2208.0200195312</ele>
        <time>2014-03-12T15:34:51Z</time>
      </trkpt>
      <trkpt lat="42.85605" lon="-0.28218">
        <ele>2204.1940917969</ele>
        <time>2014-03-12T15:34:53Z</time>
      </trkpt>
      <trkpt lat="42.85604" lon="-0.28223">
        <ele>2201.8610839844</ele>
        <time>2014-03-12T15:34:55Z</time>
      </trkpt>
      <trkpt lat="42.85602" lon="-0.28229">
        <ele>2196.7739257812</ele>
        <time>2014-03-12T15:34:57Z</time>
      </trkpt>
      <trkpt lat="42.85616" lon="-0.28236">
        <ele>2191.8310546875</ele>
        <time>2014-03-12T15:35:00Z</time>
      </trkpt>
      <trkpt lat="42.85616" lon="-0.28247">
        <ele>2189.3630371094</ele>
        <time>2014-03-12T15:35:02Z</time>
      </trkpt>
      <trkpt lat="42.85612" lon="-0.28253">
        <ele>2187.4890136719</ele>
        <time>2014-03-12T15:35:04Z</time>
      </trkpt>
      <trkpt lat="42.85608" lon="-0.28253">
        <ele>2184.751953125</ele>
        <time>2014-03-12T15:35:15Z</time>
      </trkpt>
      <trkpt lat="42.85608" lon="-0.28251">
        <ele>2185.0930175781</ele>
        <time>2014-03-12T15:36:26Z</time>
      </trkpt>
      <trkpt lat="42.85608" lon="-0.28251">
        <ele>2184.8601074219</ele>
        <time>2014-03-12T15:36:56Z</time>
      </trkpt>
      <trkpt lat="42.85619" lon="-0.28249">
        <ele>2182.9970703125</ele>
        <time>2014-03-12T15:37:01Z</time>
      </trkpt>
      <trkpt lat="42.85622" lon="-0.28248">
        <ele>2182.6330566406</ele>
        <time>2014-03-12T15:37:02Z</time>
      </trkpt>
      <trkpt lat="42.85629" lon="-0.28255">
        <ele>2179.2270507812</ele>
        <time>2014-03-12T15:37:05Z</time>
      </trkpt>
      <trkpt lat="42.85629" lon="-0.28261">
        <ele>2179.2270507812</ele>
        <time>2014-03-12T15:37:06Z</time>
      </trkpt>
      <trkpt lat="42.85627" lon="-0.28267">
        <ele>2176.6879882812</ele>
        <time>2014-03-12T15:37:07Z</time>
      </trkpt>
      <trkpt lat="42.85629" lon="-0.28287">
        <ele>2173.2309570312</ele>
        <time>2014-03-12T15:37:11Z</time>
      </trkpt>
      <trkpt lat="42.85634" lon="-0.28298">
        <ele>2170.3220214844</ele>
        <time>2014-03-12T15:37:13Z</time>
      </trkpt>
      <trkpt lat="42.85637" lon="-0.2831">
        <ele>2167.4709472656</ele>
        <time>2014-03-12T15:37:15Z</time>
      </trkpt>
      <trkpt lat="42.8564" lon="-0.28316">
        <ele>2164.3959960938</ele>
        <time>2014-03-12T15:37:16Z</time>
      </trkpt>
      <trkpt lat="42.85642" lon="-0.28321">
        <ele>2161.4230957031</ele>
        <time>2014-03-12T15:37:17Z</time>
      </trkpt>
      <trkpt lat="42.85645" lon="-0.28335">
        <ele>2157.4880371094</ele>
        <time>2014-03-12T15:37:19Z</time>
      </trkpt>
      <trkpt lat="42.85645" lon="-0.28342">
        <ele>2157.4880371094</ele>
        <time>2014-03-12T15:37:20Z</time>
      </trkpt>
      <trkpt lat="42.85645" lon="-0.28348">
        <ele>2153.9770507812</ele>
        <time>2014-03-12T15:37:21Z</time>
      </trkpt>
      <trkpt lat="42.85643" lon="-0.28354">
        <ele>2153.9770507812</ele>
        <time>2014-03-12T15:37:22Z</time>
      </trkpt>
      <trkpt lat="42.85643" lon="-0.2836">
        <ele>2149.7009277344</ele>
        <time>2014-03-12T15:37:23Z</time>
      </trkpt>
      <trkpt lat="42.85644" lon="-0.28373">
        <ele>2145.8278808594</ele>
        <time>2014-03-12T15:37:25Z</time>
      </trkpt>
      <trkpt lat="42.8564" lon="-0.28384">
        <ele>2142.2529296875</ele>
        <time>2014-03-12T15:37:27Z</time>
      </trkpt>
      <trkpt lat="42.8564" lon="-0.28391">
        <ele>2136.7729492188</ele>
        <time>2014-03-12T15:37:28Z</time>
      </trkpt>
      <trkpt lat="42.85642" lon="-0.28397">
        <ele>2136.7729492188</ele>
        <time>2014-03-12T15:37:29Z</time>
      </trkpt>
      <trkpt lat="42.85642" lon="-0.28406">
        <ele>2129.9079589844</ele>
        <time>2014-03-12T15:37:30Z</time>
      </trkpt>
      <trkpt lat="42.85642" lon="-0.28427">
        <ele>2125.1279296875</ele>
        <time>2014-03-12T15:37:32Z</time>
      </trkpt>
      <trkpt lat="42.85636" lon="-0.2844">
        <ele>2120.6459960938</ele>
        <time>2014-03-12T15:37:34Z</time>
      </trkpt>
      <trkpt lat="42.85627" lon="-0.28449">
        <ele>2118.9741210938</ele>
        <time>2014-03-12T15:37:36Z</time>
      </trkpt>
      <trkpt lat="42.85631" lon="-0.28459">
        <ele>2117.5290527344</ele>
        <time>2014-03-12T15:37:39Z</time>
      </trkpt>
      <trkpt lat="42.85634" lon="-0.28457">
        <ele>2115.6599121094</ele>
        <time>2014-03-12T15:37:41Z</time>
      </trkpt>
      <trkpt lat="42.85631" lon="-0.28458">
        <ele>2115.7390136719</ele>
        <time>2014-03-12T15:38:09Z</time>
      </trkpt>
      <trkpt lat="42.85623" lon="-0.2847">
        <ele>2112.6850585938</ele>
        <time>2014-03-12T15:38:14Z</time>
      </trkpt>
      <trkpt lat="42.85629" lon="-0.28482">
        <ele>2109.0559082031</ele>
        <time>2014-03-12T15:38:17Z</time>
      </trkpt>
      <trkpt lat="42.85632" lon="-0.28486">
        <ele>2109.0739746094</ele>
        <time>2014-03-12T15:38:18Z</time>
      </trkpt>
      <trkpt lat="42.8563" lon="-0.28492">
        <ele>2106.9470214844</ele>
        <time>2014-03-12T15:38:20Z</time>
      </trkpt>
      <trkpt lat="42.85633" lon="-0.28499">
        <ele>2099.8830566406</ele>
        <time>2014-03-12T15:38:22Z</time>
      </trkpt>
      <trkpt lat="42.85635" lon="-0.28503">
        <ele>2099.9040527344</ele>
        <time>2014-03-12T15:38:23Z</time>
      </trkpt>
      <trkpt lat="42.85638" lon="-0.28506">
        <ele>2095.3669433594</ele>
        <time>2014-03-12T15:38:24Z</time>
      </trkpt>
      <trkpt lat="42.85638" lon="-0.28508">
        <ele>2095.3879394531</ele>
        <time>2014-03-12T15:38:25Z</time>
      </trkpt>
      <trkpt lat="42.85637" lon="-0.28512">
        <ele>2092.1889648438</ele>
        <time>2014-03-12T15:38:26Z</time>
      </trkpt>
      <trkpt lat="42.8564" lon="-0.28519">
        <ele>2089.1311035156</ele>
        <time>2014-03-12T15:38:28Z</time>
      </trkpt>
      <trkpt lat="42.85643" lon="-0.28522">
        <ele>2089.1508789062</ele>
        <time>2014-03-12T15:38:29Z</time>
      </trkpt>
      <trkpt lat="42.85646" lon="-0.28526">
        <ele>2085.2600097656</ele>
        <time>2014-03-12T15:38:30Z</time>
      </trkpt>
      <trkpt lat="42.8565" lon="-0.28536">
        <ele>2081.1770019531</ele>
        <time>2014-03-12T15:38:32Z</time>
      </trkpt>
      <trkpt lat="42.85655" lon="-0.28543">
        <ele>2075.666015625</ele>
        <time>2014-03-12T15:38:33Z</time>
      </trkpt>
      <trkpt lat="42.85669" lon="-0.28559">
        <ele>2068.75</ele>
        <time>2014-03-12T15:38:35Z</time>
      </trkpt>
      <trkpt lat="42.85678" lon="-0.28567">
        <ele>2068.75</ele>
        <time>2014-03-12T15:38:36Z</time>
      </trkpt>
      <trkpt lat="42.85684" lon="-0.28574">
        <ele>2065.2858886719</ele>
        <time>2014-03-12T15:38:37Z</time>
      </trkpt>
      <trkpt lat="42.8569" lon="-0.28581">
        <ele>2064.5119628906</ele>
        <time>2014-03-12T15:38:38Z</time>
      </trkpt>
      <trkpt lat="42.85706" lon="-0.28606">
        <ele>2062.8239746094</ele>
        <time>2014-03-12T15:38:41Z</time>
      </trkpt>
      <trkpt lat="42.85716" lon="-0.28626">
        <ele>2060.4431152344</ele>
        <time>2014-03-12T15:38:43Z</time>
      </trkpt>
      <trkpt lat="42.8572" lon="-0.28637">
        <ele>2056.8259277344</ele>
        <time>2014-03-12T15:38:44Z</time>
      </trkpt>
      <trkpt lat="42.85728" lon="-0.28658">
        <ele>2054.3969726562</ele>
        <time>2014-03-12T15:38:46Z</time>
      </trkpt>
      <trkpt lat="42.85735" lon="-0.28678">
        <ele>2053.0581054688</ele>
        <time>2014-03-12T15:38:48Z</time>
      </trkpt>
      <trkpt lat="42.85765" lon="-0.2875">
        <ele>2050.126953125</ele>
        <time>2014-03-12T15:38:59Z</time>
      </trkpt>
      <trkpt lat="42.85778" lon="-0.28781">
        <ele>2050.4890136719</ele>
        <time>2014-03-12T15:39:11Z</time>
      </trkpt>
      <trkpt lat="42.85778" lon="-0.28783">
        <ele>2050.044921875</ele>
        <time>2014-03-12T15:39:12Z</time>
      </trkpt>
      <trkpt lat="42.85779" lon="-0.28787">
        <ele>2049.9240722656</ele>
        <time>2014-03-12T15:39:14Z</time>
      </trkpt>
      <trkpt lat="42.85781" lon="-0.28795">
        <ele>2049.998046875</ele>
        <time>2014-03-12T15:39:19Z</time>
      </trkpt>
      <trkpt lat="42.85785" lon="-0.28802">
        <ele>2049.2790527344</ele>
        <time>2014-03-12T15:39:23Z</time>
      </trkpt>
      <trkpt lat="42.85786" lon="-0.28806">
        <ele>2049.1789550781</ele>
        <time>2014-03-12T15:39:26Z</time>
      </trkpt>
      <trkpt lat="42.85794" lon="-0.28813">
        <ele>2049.5219726562</ele>
        <time>2014-03-12T15:39:46Z</time>
      </trkpt>
    </trkseg>
  </trk>
</gpx>